<?xml version="1.0" encoding="UTF-8" standalone="yes"?>
<gpx xmlns="http://www.topografix.com/GPX/1/1" xmlns:xsi="http://www.w3.org/2001/XMLSchema-instance" version="1.1" creator="MagicMaps Tour Explorer" xsi:schemaLocation="http://www.topografix.com/GPX/1/1 http://www.topografix.com/GPX/1/1/gpx.xsd">
  <trk>
    <name>mt-porrara-s</name>
    <trkseg>
      <trkpt lat="41.918780794" lon="14.105340997">
        <ele>1271.0</ele>
        <time>2024-06-14T07:35:58Z</time>
      </trkpt>
      <trkpt lat="41.918881210" lon="14.105393384">
        <ele>1272.9</ele>
        <time>2024-06-14T07:37:51Z</time>
      </trkpt>
      <trkpt lat="41.919014985" lon="14.105528835">
        <ele>1273.4</ele>
        <time>2024-06-14T07:38:10Z</time>
      </trkpt>
      <trkpt lat="41.919119591" lon="14.105457924">
        <ele>1273.9</ele>
        <time>2024-06-14T07:38:25Z</time>
      </trkpt>
      <trkpt lat="41.919433158" lon="14.105092473">
        <ele>1274.4</ele>
        <time>2024-06-14T07:39:01Z</time>
      </trkpt>
      <trkpt lat="41.919748904" lon="14.104764490">
        <ele>1274.4</ele>
        <time>2024-06-14T07:39:54Z</time>
      </trkpt>
      <trkpt lat="41.920234133" lon="14.104244560">
        <ele>1275.8</ele>
        <time>2024-06-14T07:40:54Z</time>
      </trkpt>
      <trkpt lat="41.920413757" lon="14.104028055">
        <ele>1276.8</ele>
        <time>2024-06-14T07:41:17Z</time>
      </trkpt>
      <trkpt lat="41.920735706" lon="14.103769558">
        <ele>1277.7</ele>
        <time>2024-06-14T07:42:06Z</time>
      </trkpt>
      <trkpt lat="41.921408940" lon="14.103344847">
        <ele>1280.1</ele>
        <time>2024-06-14T07:43:07Z</time>
      </trkpt>
      <trkpt lat="41.921824431" lon="14.102820726">
        <ele>1280.6</ele>
        <time>2024-06-14T07:43:53Z</time>
      </trkpt>
      <trkpt lat="41.922456091" lon="14.102408588">
        <ele>1275.3</ele>
        <time>2024-06-14T07:44:47Z</time>
      </trkpt>
      <trkpt lat="41.922699502" lon="14.102267437">
        <ele>1273.4</ele>
        <time>2024-06-14T07:45:07Z</time>
      </trkpt>
      <trkpt lat="41.922997646" lon="14.102190239">
        <ele>1272.0</ele>
        <time>2024-06-14T07:45:30Z</time>
      </trkpt>
      <trkpt lat="41.923667360" lon="14.102166435">
        <ele>1269.1</ele>
        <time>2024-06-14T07:46:21Z</time>
      </trkpt>
      <trkpt lat="41.924728761" lon="14.101753207">
        <ele>1272.0</ele>
        <time>2024-06-14T07:48:20Z</time>
      </trkpt>
      <trkpt lat="41.924838144" lon="14.101848844">
        <ele>1274.4</ele>
        <time>2024-06-14T07:49:01Z</time>
      </trkpt>
      <trkpt lat="41.925105024" lon="14.101942554">
        <ele>1281.6</ele>
        <time>2024-06-14T07:50:00Z</time>
      </trkpt>
      <trkpt lat="41.925180210" lon="14.102008771">
        <ele>1283.5</ele>
        <time>2024-06-14T07:50:15Z</time>
      </trkpt>
      <trkpt lat="41.925406773" lon="14.102098458">
        <ele>1289.8</ele>
        <time>2024-06-14T07:50:52Z</time>
      </trkpt>
      <trkpt lat="41.925601568" lon="14.102220079">
        <ele>1295.5</ele>
        <time>2024-06-14T07:51:29Z</time>
      </trkpt>
      <trkpt lat="41.925658984" lon="14.102308843">
        <ele>1298.9</ele>
        <time>2024-06-14T07:51:45Z</time>
      </trkpt>
      <trkpt lat="41.925734840" lon="14.102334324">
        <ele>1301.8</ele>
        <time>2024-06-14T07:52:01Z</time>
      </trkpt>
      <trkpt lat="41.925774906" lon="14.102401882">
        <ele>1303.7</ele>
        <time>2024-06-14T07:52:18Z</time>
      </trkpt>
      <trkpt lat="41.925869789" lon="14.102433817">
        <ele>1307.5</ele>
        <time>2024-06-14T07:52:56Z</time>
      </trkpt>
      <trkpt lat="41.925988561" lon="14.102513949">
        <ele>1310.9</ele>
        <time>2024-06-14T07:53:19Z</time>
      </trkpt>
      <trkpt lat="41.926100627" lon="14.102527024">
        <ele>1313.8</ele>
        <time>2024-06-14T07:53:38Z</time>
      </trkpt>
      <trkpt lat="41.926566325" lon="14.102692818">
        <ele>1325.3</ele>
        <time>2024-06-14T07:54:49Z</time>
      </trkpt>
      <trkpt lat="41.926826583" lon="14.102717713">
        <ele>1331.1</ele>
        <time>2024-06-14T07:55:27Z</time>
      </trkpt>
      <trkpt lat="41.926933033" lon="14.102748977">
        <ele>1333.5</ele>
        <time>2024-06-14T07:55:46Z</time>
      </trkpt>
      <trkpt lat="41.926948624" lon="14.102789797">
        <ele>1336.4</ele>
        <time>2024-06-14T07:56:02Z</time>
      </trkpt>
      <trkpt lat="41.927003609" lon="14.102850063">
        <ele>1339.2</ele>
        <time>2024-06-14T07:56:20Z</time>
      </trkpt>
      <trkpt lat="41.927077118" lon="14.102875125">
        <ele>1342.1</ele>
        <time>2024-06-14T07:56:37Z</time>
      </trkpt>
      <trkpt lat="41.927224807" lon="14.102989370">
        <ele>1347.9</ele>
        <time>2024-06-14T07:57:09Z</time>
      </trkpt>
      <trkpt lat="41.927320445" lon="14.103043517">
        <ele>1350.8</ele>
        <time>2024-06-14T07:57:29Z</time>
      </trkpt>
      <trkpt lat="41.927508786" lon="14.103082912">
        <ele>1355.6</ele>
        <time>2024-06-14T07:58:01Z</time>
      </trkpt>
      <trkpt lat="41.927497135" lon="14.103211071">
        <ele>1360.4</ele>
        <time>2024-06-14T07:58:34Z</time>
      </trkpt>
      <trkpt lat="41.927564861" lon="14.103237307">
        <ele>1363.3</ele>
        <time>2024-06-14T07:58:49Z</time>
      </trkpt>
      <trkpt lat="41.927727722" lon="14.103349959">
        <ele>1369.0</ele>
        <time>2024-06-14T07:59:26Z</time>
      </trkpt>
      <trkpt lat="41.927808272" lon="14.103453057">
        <ele>1372.4</ele>
        <time>2024-06-14T07:59:46Z</time>
      </trkpt>
      <trkpt lat="41.927735014" lon="14.103515502">
        <ele>1374.8</ele>
        <time>2024-06-14T08:00:03Z</time>
      </trkpt>
      <trkpt lat="41.927713640" lon="14.103585659">
        <ele>1377.7</ele>
        <time>2024-06-14T08:00:18Z</time>
      </trkpt>
      <trkpt lat="41.927754460" lon="14.103697808">
        <ele>1379.6</ele>
        <time>2024-06-14T08:00:33Z</time>
      </trkpt>
      <trkpt lat="41.927858815" lon="14.103776012">
        <ele>1383.0</ele>
        <time>2024-06-14T08:00:55Z</time>
      </trkpt>
      <trkpt lat="41.928009102" lon="14.103738796">
        <ele>1384.9</ele>
        <time>2024-06-14T08:01:15Z</time>
      </trkpt>
      <trkpt lat="41.928343791" lon="14.103715159">
        <ele>1385.4</ele>
        <time>2024-06-14T08:01:51Z</time>
      </trkpt>
      <trkpt lat="41.928673033" lon="14.103880115">
        <ele>1392.6</ele>
        <time>2024-06-14T08:02:47Z</time>
      </trkpt>
      <trkpt lat="41.928756600" lon="14.103887156">
        <ele>1395.5</ele>
        <time>2024-06-14T08:03:07Z</time>
      </trkpt>
      <trkpt lat="41.928815693" lon="14.103840971">
        <ele>1398.4</ele>
        <time>2024-06-14T08:03:24Z</time>
      </trkpt>
      <trkpt lat="41.929028342" lon="14.103889670">
        <ele>1405.1</ele>
        <time>2024-06-14T08:04:12Z</time>
      </trkpt>
      <trkpt lat="41.929096319" lon="14.103854634">
        <ele>1407.0</ele>
        <time>2024-06-14T08:04:28Z</time>
      </trkpt>
      <trkpt lat="41.929162536" lon="14.103686325">
        <ele>1412.3</ele>
        <time>2024-06-14T08:04:59Z</time>
      </trkpt>
      <trkpt lat="41.929241996" lon="14.103591358">
        <ele>1414.2</ele>
        <time>2024-06-14T08:05:16Z</time>
      </trkpt>
      <trkpt lat="41.929368982" lon="14.103542073">
        <ele>1417.1</ele>
        <time>2024-06-14T08:05:36Z</time>
      </trkpt>
      <trkpt lat="41.929541314" lon="14.103430342">
        <ele>1421.5</ele>
        <time>2024-06-14T08:06:08Z</time>
      </trkpt>
      <trkpt lat="41.929617589" lon="14.103472838">
        <ele>1423.4</ele>
        <time>2024-06-14T08:06:23Z</time>
      </trkpt>
      <trkpt lat="41.929713897" lon="14.103480550">
        <ele>1426.2</ele>
        <time>2024-06-14T08:06:39Z</time>
      </trkpt>
      <trkpt lat="41.930089910" lon="14.103217023">
        <ele>1435.4</ele>
        <time>2024-06-14T08:07:47Z</time>
      </trkpt>
      <trkpt lat="41.930153109" lon="14.103131695">
        <ele>1437.3</ele>
        <time>2024-06-14T08:08:02Z</time>
      </trkpt>
      <trkpt lat="41.930231731" lon="14.103063131">
        <ele>1438.8</ele>
        <time>2024-06-14T08:08:17Z</time>
      </trkpt>
      <trkpt lat="41.930344887" lon="14.103005212">
        <ele>1441.2</ele>
        <time>2024-06-14T08:08:36Z</time>
      </trkpt>
      <trkpt lat="41.930446811" lon="14.102994399">
        <ele>1443.1</ele>
        <time>2024-06-14T08:08:53Z</time>
      </trkpt>
      <trkpt lat="41.930782674" lon="14.102864815">
        <ele>1452.2</ele>
        <time>2024-06-14T08:11:13Z</time>
      </trkpt>
      <trkpt lat="41.930857860" lon="14.102880908">
        <ele>1453.7</ele>
        <time>2024-06-14T08:12:15Z</time>
      </trkpt>
      <trkpt lat="41.930911839" lon="14.102885937">
        <ele>1455.6</ele>
        <time>2024-06-14T08:12:30Z</time>
      </trkpt>
      <trkpt lat="41.931171678" lon="14.102800609">
        <ele>1461.3</ele>
        <time>2024-06-14T08:13:22Z</time>
      </trkpt>
      <trkpt lat="41.931332694" lon="14.102818631">
        <ele>1464.2</ele>
        <time>2024-06-14T08:13:44Z</time>
      </trkpt>
      <trkpt lat="41.931515001" lon="14.102787198">
        <ele>1468.5</ele>
        <time>2024-06-14T08:14:12Z</time>
      </trkpt>
      <trkpt lat="41.931764698" lon="14.102783007">
        <ele>1473.4</ele>
        <time>2024-06-14T08:14:46Z</time>
      </trkpt>
      <trkpt lat="41.931840805" lon="14.102749229">
        <ele>1474.8</ele>
        <time>2024-06-14T08:14:59Z</time>
      </trkpt>
      <trkpt lat="41.932053706" lon="14.102745205">
        <ele>1478.2</ele>
        <time>2024-06-14T08:15:24Z</time>
      </trkpt>
      <trkpt lat="41.932333158" lon="14.102674797">
        <ele>1481.0</ele>
        <time>2024-06-14T08:15:58Z</time>
      </trkpt>
      <trkpt lat="41.932428461" lon="14.102669433">
        <ele>1482.5</ele>
        <time>2024-06-14T08:16:11Z</time>
      </trkpt>
      <trkpt lat="41.932682851" lon="14.102586536">
        <ele>1486.3</ele>
        <time>2024-06-14T08:16:47Z</time>
      </trkpt>
      <trkpt lat="41.932963813" lon="14.102562144">
        <ele>1486.8</ele>
        <time>2024-06-14T08:17:20Z</time>
      </trkpt>
      <trkpt lat="41.933096917" lon="14.102509171">
        <ele>1487.3</ele>
        <time>2024-06-14T08:17:36Z</time>
      </trkpt>
      <trkpt lat="41.933207894" lon="14.102409007">
        <ele>1488.7</ele>
        <time>2024-06-14T08:17:53Z</time>
      </trkpt>
      <trkpt lat="41.933328258" lon="14.102376150">
        <ele>1489.7</ele>
        <time>2024-06-14T08:18:08Z</time>
      </trkpt>
      <trkpt lat="41.933451388" lon="14.102302054">
        <ele>1491.1</ele>
        <time>2024-06-14T08:18:24Z</time>
      </trkpt>
      <trkpt lat="41.933537889" lon="14.102178337">
        <ele>1491.6</ele>
        <time>2024-06-14T08:18:40Z</time>
      </trkpt>
      <trkpt lat="41.933601927" lon="14.102003239">
        <ele>1494.0</ele>
        <time>2024-06-14T08:18:59Z</time>
      </trkpt>
      <trkpt lat="41.933709551" lon="14.101892933">
        <ele>1496.0</ele>
        <time>2024-06-14T08:19:15Z</time>
      </trkpt>
      <trkpt lat="41.933866376" lon="14.101787573">
        <ele>1497.9</ele>
        <time>2024-06-14T08:19:35Z</time>
      </trkpt>
      <trkpt lat="41.934000067" lon="14.101720769">
        <ele>1499.8</ele>
        <time>2024-06-14T08:19:52Z</time>
      </trkpt>
      <trkpt lat="41.934254794" lon="14.101642063">
        <ele>1503.2</ele>
        <time>2024-06-14T08:20:25Z</time>
      </trkpt>
      <trkpt lat="41.934550088" lon="14.101601914">
        <ele>1505.6</ele>
        <time>2024-06-14T08:20:59Z</time>
      </trkpt>
      <trkpt lat="41.934684115" lon="14.101541312">
        <ele>1507.5</ele>
        <time>2024-06-14T08:21:18Z</time>
      </trkpt>
      <trkpt lat="41.934819482" lon="14.101538798">
        <ele>1509.4</ele>
        <time>2024-06-14T08:21:36Z</time>
      </trkpt>
      <trkpt lat="41.934950408" lon="14.101505689">
        <ele>1511.8</ele>
        <time>2024-06-14T08:21:53Z</time>
      </trkpt>
      <trkpt lat="41.935079824" lon="14.101446262">
        <ele>1513.2</ele>
        <time>2024-06-14T08:22:09Z</time>
      </trkpt>
      <trkpt lat="41.935512917" lon="14.101173179">
        <ele>1516.6</ele>
        <time>2024-06-14T08:23:07Z</time>
      </trkpt>
      <trkpt lat="41.935621211" lon="14.101134706">
        <ele>1518.5</ele>
        <time>2024-06-14T08:23:24Z</time>
      </trkpt>
      <trkpt lat="41.935793543" lon="14.101011660">
        <ele>1521.4</ele>
        <time>2024-06-14T08:23:52Z</time>
      </trkpt>
      <trkpt lat="41.935877362" lon="14.100922728">
        <ele>1523.8</ele>
        <time>2024-06-14T08:24:09Z</time>
      </trkpt>
      <trkpt lat="41.936037121" lon="14.100834969">
        <ele>1527.2</ele>
        <time>2024-06-14T08:24:45Z</time>
      </trkpt>
      <trkpt lat="41.936264690" lon="14.100600192">
        <ele>1530.6</ele>
        <time>2024-06-14T08:25:21Z</time>
      </trkpt>
      <trkpt lat="41.936366027" lon="14.100568509">
        <ele>1532.5</ele>
        <time>2024-06-14T08:25:37Z</time>
      </trkpt>
      <trkpt lat="41.936575491" lon="14.100438673">
        <ele>1536.8</ele>
        <time>2024-06-14T08:26:12Z</time>
      </trkpt>
      <trkpt lat="41.936678924" lon="14.100323590">
        <ele>1538.7</ele>
        <time>2024-06-14T08:26:29Z</time>
      </trkpt>
      <trkpt lat="41.936793756" lon="14.100294337">
        <ele>1540.2</ele>
        <time>2024-06-14T08:26:45Z</time>
      </trkpt>
      <trkpt lat="41.936902050" lon="14.100307245">
        <ele>1542.6</ele>
        <time>2024-06-14T08:27:02Z</time>
      </trkpt>
      <trkpt lat="41.937158955" lon="14.100285619">
        <ele>1546.4</ele>
        <time>2024-06-14T08:27:39Z</time>
      </trkpt>
      <trkpt lat="41.937240427" lon="14.100313783">
        <ele>1548.3</ele>
        <time>2024-06-14T08:27:54Z</time>
      </trkpt>
      <trkpt lat="41.937265070" lon="14.100388968">
        <ele>1550.7</ele>
        <time>2024-06-14T08:28:09Z</time>
      </trkpt>
      <trkpt lat="41.937226933" lon="14.100494161">
        <ele>1551.7</ele>
        <time>2024-06-14T08:28:25Z</time>
      </trkpt>
      <trkpt lat="41.937301112" lon="14.100591643">
        <ele>1553.6</ele>
        <time>2024-06-14T08:28:43Z</time>
      </trkpt>
      <trkpt lat="41.937427595" lon="14.100679653">
        <ele>1556.0</ele>
        <time>2024-06-14T08:29:06Z</time>
      </trkpt>
      <trkpt lat="41.937491717" lon="14.101026161">
        <ele>1560.8</ele>
        <time>2024-06-14T08:29:48Z</time>
      </trkpt>
      <trkpt lat="41.937571764" lon="14.101206958">
        <ele>1564.2</ele>
        <time>2024-06-14T08:30:11Z</time>
      </trkpt>
      <trkpt lat="41.937691541" lon="14.101324556">
        <ele>1567.1</ele>
        <time>2024-06-14T08:30:34Z</time>
      </trkpt>
      <trkpt lat="41.937814755" lon="14.101354647">
        <ele>1570.0</ele>
        <time>2024-06-14T08:30:54Z</time>
      </trkpt>
      <trkpt lat="41.937920451" lon="14.101450956">
        <ele>1572.8</ele>
        <time>2024-06-14T08:31:13Z</time>
      </trkpt>
      <trkpt lat="41.938008796" lon="14.101595627">
        <ele>1574.8</ele>
        <time>2024-06-14T08:31:32Z</time>
      </trkpt>
      <trkpt lat="41.938281460" lon="14.101791009">
        <ele>1582.5</ele>
        <time>2024-06-14T08:33:04Z</time>
      </trkpt>
      <trkpt lat="41.938322280" lon="14.101725966">
        <ele>1584.9</ele>
        <time>2024-06-14T08:33:19Z</time>
      </trkpt>
      <trkpt lat="41.938387323" lon="14.101773240">
        <ele>1587.8</ele>
        <time>2024-06-14T08:33:35Z</time>
      </trkpt>
      <trkpt lat="41.938579688" lon="14.101738203">
        <ele>1595.0</ele>
        <time>2024-06-14T08:34:25Z</time>
      </trkpt>
      <trkpt lat="41.938613299" lon="14.101691684">
        <ele>1596.4</ele>
        <time>2024-06-14T08:34:40Z</time>
      </trkpt>
      <trkpt lat="41.938675242" lon="14.101706017">
        <ele>1598.3</ele>
        <time>2024-06-14T08:34:55Z</time>
      </trkpt>
      <trkpt lat="41.938816560" lon="14.101643823">
        <ele>1603.6</ele>
        <time>2024-06-14T08:35:28Z</time>
      </trkpt>
      <trkpt lat="41.938867858" lon="14.101563273">
        <ele>1606.0</ele>
        <time>2024-06-14T08:35:46Z</time>
      </trkpt>
      <trkpt lat="41.938925609" lon="14.101522537">
        <ele>1608.4</ele>
        <time>2024-06-14T08:36:03Z</time>
      </trkpt>
      <trkpt lat="41.938995430" lon="14.101566039">
        <ele>1610.3</ele>
        <time>2024-06-14T08:36:19Z</time>
      </trkpt>
      <trkpt lat="41.939084614" lon="14.101435365">
        <ele>1614.7</ele>
        <time>2024-06-14T08:36:50Z</time>
      </trkpt>
      <trkpt lat="41.939155692" lon="14.101482304">
        <ele>1616.6</ele>
        <time>2024-06-14T08:37:06Z</time>
      </trkpt>
      <trkpt lat="41.939271698" lon="14.101459673">
        <ele>1620.9</ele>
        <time>2024-06-14T08:37:36Z</time>
      </trkpt>
      <trkpt lat="41.939301705" lon="14.101378201">
        <ele>1622.8</ele>
        <time>2024-06-14T08:37:51Z</time>
      </trkpt>
      <trkpt lat="41.939377142" lon="14.101416338">
        <ele>1624.8</ele>
        <time>2024-06-14T08:38:07Z</time>
      </trkpt>
      <trkpt lat="41.939437073" lon="14.101387169">
        <ele>1627.2</ele>
        <time>2024-06-14T08:38:23Z</time>
      </trkpt>
      <trkpt lat="41.939474624" lon="14.101302093">
        <ele>1629.6</ele>
        <time>2024-06-14T08:38:38Z</time>
      </trkpt>
      <trkpt lat="41.939624324" lon="14.101330843">
        <ele>1634.4</ele>
        <time>2024-06-14T08:39:10Z</time>
      </trkpt>
      <trkpt lat="41.939688698" lon="14.101279546">
        <ele>1636.8</ele>
        <time>2024-06-14T08:39:27Z</time>
      </trkpt>
      <trkpt lat="41.939897239" lon="14.101323299">
        <ele>1642.5</ele>
        <time>2024-06-14T08:40:06Z</time>
      </trkpt>
      <trkpt lat="41.939973431" lon="14.101277534">
        <ele>1645.4</ele>
        <time>2024-06-14T08:40:25Z</time>
      </trkpt>
      <trkpt lat="41.940140817" lon="14.101364789">
        <ele>1650.2</ele>
        <time>2024-06-14T08:40:59Z</time>
      </trkpt>
      <trkpt lat="41.940226061" lon="14.101335704">
        <ele>1652.6</ele>
        <time>2024-06-14T08:41:16Z</time>
      </trkpt>
      <trkpt lat="41.940305857" lon="14.101348613">
        <ele>1655.0</ele>
        <time>2024-06-14T08:41:32Z</time>
      </trkpt>
      <trkpt lat="41.940566953" lon="14.101229087">
        <ele>1663.2</ele>
        <time>2024-06-14T08:42:49Z</time>
      </trkpt>
      <trkpt lat="41.940695615" lon="14.101200923">
        <ele>1665.6</ele>
        <time>2024-06-14T08:43:09Z</time>
      </trkpt>
      <trkpt lat="41.940767700" lon="14.101164797">
        <ele>1666.6</ele>
        <time>2024-06-14T08:43:26Z</time>
      </trkpt>
      <trkpt lat="41.940793516" lon="14.101059604">
        <ele>1668.5</ele>
        <time>2024-06-14T08:44:06Z</time>
      </trkpt>
      <trkpt lat="41.940775663" lon="14.100937312">
        <ele>1671.4</ele>
        <time>2024-06-14T08:44:25Z</time>
      </trkpt>
      <trkpt lat="41.940690586" lon="14.100828012">
        <ele>1673.8</ele>
        <time>2024-06-14T08:44:44Z</time>
      </trkpt>
      <trkpt lat="41.940658400" lon="14.100743858">
        <ele>1675.2</ele>
        <time>2024-06-14T08:44:58Z</time>
      </trkpt>
      <trkpt lat="41.940722773" lon="14.100706726">
        <ele>1677.6</ele>
        <time>2024-06-14T08:45:13Z</time>
      </trkpt>
      <trkpt lat="41.940749511" lon="14.100667499">
        <ele>1679.6</ele>
        <time>2024-06-14T08:45:28Z</time>
      </trkpt>
      <trkpt lat="41.940632667" lon="14.100499107">
        <ele>1684.4</ele>
        <time>2024-06-14T08:46:02Z</time>
      </trkpt>
      <trkpt lat="41.940620094" lon="14.100416545">
        <ele>1686.8</ele>
        <time>2024-06-14T08:46:21Z</time>
      </trkpt>
      <trkpt lat="41.940639038" lon="14.100357536">
        <ele>1689.2</ele>
        <time>2024-06-14T08:46:37Z</time>
      </trkpt>
      <trkpt lat="41.940782284" lon="14.100170704">
        <ele>1695.9</ele>
        <time>2024-06-14T08:47:27Z</time>
      </trkpt>
      <trkpt lat="41.940826708" lon="14.100075234">
        <ele>1698.8</ele>
        <time>2024-06-14T08:47:46Z</time>
      </trkpt>
      <trkpt lat="41.940892003" lon="14.100032989">
        <ele>1701.2</ele>
        <time>2024-06-14T08:48:17Z</time>
      </trkpt>
      <trkpt lat="41.940921424" lon="14.099985799">
        <ele>1702.6</ele>
        <time>2024-06-14T08:48:57Z</time>
      </trkpt>
      <trkpt lat="41.941179419" lon="14.099940537">
        <ele>1707.0</ele>
        <time>2024-06-14T08:54:12Z</time>
      </trkpt>
      <trkpt lat="41.941180006" lon="14.099960150">
        <ele>1707.9</ele>
        <time>2024-06-14T08:55:36Z</time>
      </trkpt>
      <trkpt lat="41.941144383" lon="14.099964760">
        <ele>1707.4</ele>
        <time>2024-06-14T08:55:46Z</time>
      </trkpt>
      <trkpt lat="41.941239685" lon="14.099936597">
        <ele>1708.4</ele>
        <time>2024-06-14T08:56:00Z</time>
      </trkpt>
      <trkpt lat="41.941469265" lon="14.099802738">
        <ele>1712.2</ele>
        <time>2024-06-14T08:56:36Z</time>
      </trkpt>
      <trkpt lat="41.941574458" lon="14.099785890">
        <ele>1715.1</ele>
        <time>2024-06-14T08:56:53Z</time>
      </trkpt>
      <trkpt lat="41.941659534" lon="14.099704837">
        <ele>1718.0</ele>
        <time>2024-06-14T08:57:11Z</time>
      </trkpt>
      <trkpt lat="41.941764057" lon="14.099674495">
        <ele>1720.4</ele>
        <time>2024-06-14T08:57:28Z</time>
      </trkpt>
      <trkpt lat="41.941969497" lon="14.099561926">
        <ele>1726.2</ele>
        <time>2024-06-14T08:58:06Z</time>
      </trkpt>
      <trkpt lat="41.942169322" lon="14.099353468">
        <ele>1731.0</ele>
        <time>2024-06-14T08:58:44Z</time>
      </trkpt>
      <trkpt lat="41.942274850" lon="14.099292196">
        <ele>1732.9</ele>
        <time>2024-06-14T08:59:03Z</time>
      </trkpt>
      <trkpt lat="41.942466628" lon="14.099247772">
        <ele>1737.7</ele>
        <time>2024-06-14T08:59:39Z</time>
      </trkpt>
      <trkpt lat="41.942538125" lon="14.099183567">
        <ele>1740.1</ele>
        <time>2024-06-14T08:59:56Z</time>
      </trkpt>
      <trkpt lat="41.942623369" lon="14.099141238">
        <ele>1742.5</ele>
        <time>2024-06-14T09:00:14Z</time>
      </trkpt>
      <trkpt lat="41.942885891" lon="14.099107711">
        <ele>1749.7</ele>
        <time>2024-06-14T09:01:08Z</time>
      </trkpt>
      <trkpt lat="41.943092085" lon="14.098989190">
        <ele>1755.0</ele>
        <time>2024-06-14T09:01:47Z</time>
      </trkpt>
      <trkpt lat="41.943400623" lon="14.098849129">
        <ele>1761.3</ele>
        <time>2024-06-14T09:03:04Z</time>
      </trkpt>
      <trkpt lat="41.943562729" lon="14.098748965">
        <ele>1762.7</ele>
        <time>2024-06-14T09:03:24Z</time>
      </trkpt>
      <trkpt lat="41.943806894" lon="14.098702278">
        <ele>1764.6</ele>
        <time>2024-06-14T09:03:57Z</time>
      </trkpt>
      <trkpt lat="41.944004288" lon="14.098610412">
        <ele>1764.2</ele>
        <time>2024-06-14T09:04:18Z</time>
      </trkpt>
      <trkpt lat="41.944157928" lon="14.098570850">
        <ele>1762.2</ele>
        <time>2024-06-14T09:04:34Z</time>
      </trkpt>
      <trkpt lat="41.944259684" lon="14.098590715">
        <ele>1760.8</ele>
        <time>2024-06-14T09:04:44Z</time>
      </trkpt>
      <trkpt lat="41.944392622" lon="14.098557858">
        <ele>1760.3</ele>
        <time>2024-06-14T09:06:08Z</time>
      </trkpt>
      <trkpt lat="41.944442913" lon="14.098586524">
        <ele>1760.8</ele>
        <time>2024-06-14T09:06:16Z</time>
      </trkpt>
      <trkpt lat="41.944383569" lon="14.098556433">
        <ele>1760.3</ele>
        <time>2024-06-14T09:06:36Z</time>
      </trkpt>
      <trkpt lat="41.944537042" lon="14.098591553">
        <ele>1761.8</ele>
        <time>2024-06-14T09:07:06Z</time>
      </trkpt>
      <trkpt lat="41.944597224" lon="14.098549308">
        <ele>1762.7</ele>
        <time>2024-06-14T09:07:22Z</time>
      </trkpt>
      <trkpt lat="41.945016906" lon="14.098448642">
        <ele>1762.7</ele>
        <time>2024-06-14T09:08:09Z</time>
      </trkpt>
      <trkpt lat="41.945056720" lon="14.098399859">
        <ele>1762.7</ele>
        <time>2024-06-14T09:08:15Z</time>
      </trkpt>
      <trkpt lat="41.945120674" lon="14.098207243">
        <ele>1762.7</ele>
        <time>2024-06-14T09:08:32Z</time>
      </trkpt>
      <trkpt lat="41.945196614" lon="14.098198023">
        <ele>1762.7</ele>
        <time>2024-06-14T09:08:40Z</time>
      </trkpt>
      <trkpt lat="41.945330892" lon="14.098122586">
        <ele>1763.2</ele>
        <time>2024-06-14T09:08:54Z</time>
      </trkpt>
      <trkpt lat="41.945371460" lon="14.098078664">
        <ele>1763.2</ele>
        <time>2024-06-14T09:08:59Z</time>
      </trkpt>
      <trkpt lat="41.945657870" lon="14.098002557">
        <ele>1763.7</ele>
        <time>2024-06-14T09:09:30Z</time>
      </trkpt>
      <trkpt lat="41.945805140" lon="14.097843552">
        <ele>1763.2</ele>
        <time>2024-06-14T09:09:48Z</time>
      </trkpt>
      <trkpt lat="41.945879990" lon="14.097718578">
        <ele>1763.2</ele>
        <time>2024-06-14T09:10:04Z</time>
      </trkpt>
      <trkpt lat="41.946116695" lon="14.097619839">
        <ele>1766.1</ele>
        <time>2024-06-14T09:10:33Z</time>
      </trkpt>
      <trkpt lat="41.946235132" lon="14.097588491">
        <ele>1768.5</ele>
        <time>2024-06-14T09:10:50Z</time>
      </trkpt>
      <trkpt lat="41.946332278" lon="14.097594945">
        <ele>1770.9</ele>
        <time>2024-06-14T09:11:06Z</time>
      </trkpt>
      <trkpt lat="41.946411570" lon="14.097523866">
        <ele>1772.8</ele>
        <time>2024-06-14T09:11:21Z</time>
      </trkpt>
      <trkpt lat="41.946487762" lon="14.097539624">
        <ele>1774.7</ele>
        <time>2024-06-14T09:11:37Z</time>
      </trkpt>
      <trkpt lat="41.946676942" lon="14.097473156">
        <ele>1778.1</ele>
        <time>2024-06-14T09:12:07Z</time>
      </trkpt>
      <trkpt lat="41.946769562" lon="14.097515820">
        <ele>1780.5</ele>
        <time>2024-06-14T09:12:23Z</time>
      </trkpt>
      <trkpt lat="41.947344309" lon="14.097618582">
        <ele>1790.6</ele>
        <time>2024-06-14T09:13:55Z</time>
      </trkpt>
      <trkpt lat="41.947601717" lon="14.097557394">
        <ele>1792.5</ele>
        <time>2024-06-14T09:14:26Z</time>
      </trkpt>
      <trkpt lat="41.947737671" lon="14.097502660">
        <ele>1793.5</ele>
        <time>2024-06-14T09:14:41Z</time>
      </trkpt>
      <trkpt lat="41.948040761" lon="14.097547252">
        <ele>1795.9</ele>
        <time>2024-06-14T09:15:16Z</time>
      </trkpt>
      <trkpt lat="41.948136482" lon="14.097629813">
        <ele>1797.8</ele>
        <time>2024-06-14T09:15:32Z</time>
      </trkpt>
      <trkpt lat="41.948241256" lon="14.097659234">
        <ele>1799.7</ele>
        <time>2024-06-14T09:15:48Z</time>
      </trkpt>
      <trkpt lat="41.948424652" lon="14.097701730">
        <ele>1803.6</ele>
        <time>2024-06-14T09:16:19Z</time>
      </trkpt>
      <trkpt lat="41.948594470" lon="14.097705670">
        <ele>1806.0</ele>
        <time>2024-06-14T09:16:48Z</time>
      </trkpt>
      <trkpt lat="41.948641073" lon="14.097735928">
        <ele>1808.4</ele>
        <time>2024-06-14T09:17:01Z</time>
      </trkpt>
      <trkpt lat="41.948689101" lon="14.097813293">
        <ele>1810.8</ele>
        <time>2024-06-14T09:17:14Z</time>
      </trkpt>
      <trkpt lat="41.949085314" lon="14.097791752">
        <ele>1817.5</ele>
        <time>2024-06-14T09:18:10Z</time>
      </trkpt>
      <trkpt lat="41.949216155" lon="14.097752273">
        <ele>1818.5</ele>
        <time>2024-06-14T09:18:25Z</time>
      </trkpt>
      <trkpt lat="41.949243983" lon="14.097752441">
        <ele>1819.0</ele>
        <time>2024-06-14T09:18:28Z</time>
      </trkpt>
      <trkpt lat="41.949290000" lon="14.097800385">
        <ele>1819.4</ele>
        <time>2024-06-14T09:18:34Z</time>
      </trkpt>
      <trkpt lat="41.949441461" lon="14.097795691">
        <ele>1819.4</ele>
        <time>2024-06-14T09:18:51Z</time>
      </trkpt>
      <trkpt lat="41.949674645" lon="14.097649679">
        <ele>1821.3</ele>
        <time>2024-06-14T09:19:25Z</time>
      </trkpt>
      <trkpt lat="41.949799703" lon="14.097712962">
        <ele>1822.8</ele>
        <time>2024-06-14T09:19:44Z</time>
      </trkpt>
      <trkpt lat="41.950130789" lon="14.097690666">
        <ele>1831.0</ele>
        <time>2024-06-14T09:20:42Z</time>
      </trkpt>
      <trkpt lat="41.950372439" lon="14.097561333">
        <ele>1833.4</ele>
        <time>2024-06-14T09:21:25Z</time>
      </trkpt>
      <trkpt lat="41.950516524" lon="14.097571727">
        <ele>1835.8</ele>
        <time>2024-06-14T09:21:44Z</time>
      </trkpt>
      <trkpt lat="41.950886920" lon="14.097484890">
        <ele>1839.6</ele>
        <time>2024-06-14T09:22:25Z</time>
      </trkpt>
      <trkpt lat="41.951091941" lon="14.097362263">
        <ele>1844.4</ele>
        <time>2024-06-14T09:23:05Z</time>
      </trkpt>
      <trkpt lat="41.951159835" lon="14.097417835">
        <ele>1846.8</ele>
        <time>2024-06-14T09:23:22Z</time>
      </trkpt>
      <trkpt lat="41.951308697" lon="14.097359916">
        <ele>1852.6</ele>
        <time>2024-06-14T09:23:57Z</time>
      </trkpt>
      <trkpt lat="41.951365443" lon="14.097383721">
        <ele>1855.5</ele>
        <time>2024-06-14T09:24:14Z</time>
      </trkpt>
      <trkpt lat="41.951777162" lon="14.097303506">
        <ele>1864.6</ele>
        <time>2024-06-14T09:25:26Z</time>
      </trkpt>
      <trkpt lat="41.952187456" lon="14.097025059">
        <ele>1875.2</ele>
        <time>2024-06-14T09:26:42Z</time>
      </trkpt>
      <trkpt lat="41.952367332" lon="14.096953981">
        <ele>1880.5</ele>
        <time>2024-06-14T09:27:16Z</time>
      </trkpt>
      <trkpt lat="41.952436902" lon="14.096983317">
        <ele>1882.4</ele>
        <time>2024-06-14T09:27:33Z</time>
      </trkpt>
      <trkpt lat="41.952497251" lon="14.096977618">
        <ele>1884.3</ele>
        <time>2024-06-14T09:27:47Z</time>
      </trkpt>
      <trkpt lat="41.952539831" lon="14.096949873">
        <ele>1885.8</ele>
        <time>2024-06-14T09:28:03Z</time>
      </trkpt>
      <trkpt lat="41.952596828" lon="14.096858762">
        <ele>1887.7</ele>
        <time>2024-06-14T09:28:46Z</time>
      </trkpt>
      <trkpt lat="41.952682324" lon="14.096816601">
        <ele>1888.2</ele>
        <time>2024-06-14T09:29:03Z</time>
      </trkpt>
      <trkpt lat="41.952920621" lon="14.096753318">
        <ele>1891.0</ele>
        <time>2024-06-14T09:29:39Z</time>
      </trkpt>
      <trkpt lat="41.953051295" lon="14.096762789">
        <ele>1893.0</ele>
        <time>2024-06-14T09:29:57Z</time>
      </trkpt>
      <trkpt lat="41.953097647" lon="14.096784498">
        <ele>1893.0</ele>
        <time>2024-06-14T09:30:04Z</time>
      </trkpt>
      <trkpt lat="41.953237206" lon="14.096748037">
        <ele>1892.5</ele>
        <time>2024-06-14T09:30:21Z</time>
      </trkpt>
      <trkpt lat="41.953269141" lon="14.096718701">
        <ele>1892.5</ele>
        <time>2024-06-14T09:30:26Z</time>
      </trkpt>
      <trkpt lat="41.953428816" lon="14.096664973">
        <ele>1893.0</ele>
        <time>2024-06-14T09:30:45Z</time>
      </trkpt>
      <trkpt lat="41.953524621" lon="14.096745774">
        <ele>1894.4</ele>
        <time>2024-06-14T09:31:03Z</time>
      </trkpt>
      <trkpt lat="41.953561837" lon="14.096806459">
        <ele>1896.3</ele>
        <time>2024-06-14T09:31:18Z</time>
      </trkpt>
      <trkpt lat="41.953630485" lon="14.096818864">
        <ele>1899.2</ele>
        <time>2024-06-14T09:31:35Z</time>
      </trkpt>
      <trkpt lat="41.953787981" lon="14.096940737">
        <ele>1902.1</ele>
        <time>2024-06-14T09:32:06Z</time>
      </trkpt>
      <trkpt lat="41.953838607" lon="14.097295795">
        <ele>1905.0</ele>
        <time>2024-06-14T09:32:44Z</time>
      </trkpt>
      <trkpt lat="41.953852102" lon="14.097554209">
        <ele>1909.8</ele>
        <time>2024-06-14T09:41:22Z</time>
      </trkpt>
      <trkpt lat="41.953865010" lon="14.097555466">
        <ele>1907.9</ele>
        <time>2024-06-14T09:44:27Z</time>
      </trkpt>
      <trkpt lat="41.953922007" lon="14.097582791">
        <ele>1908.3</ele>
        <time>2024-06-14T09:44:39Z</time>
      </trkpt>
      <trkpt lat="41.953908680" lon="14.097587820">
        <ele>1908.8</ele>
        <time>2024-06-14T09:44:41Z</time>
      </trkpt>
      <trkpt lat="41.953802146" lon="14.097537277">
        <ele>1907.9</ele>
        <time>2024-06-14T09:46:03Z</time>
      </trkpt>
      <trkpt lat="41.953805499" lon="14.097565860">
        <ele>1906.4</ele>
        <time>2024-06-14T09:50:11Z</time>
      </trkpt>
      <trkpt lat="41.954058129" lon="14.097543061">
        <ele>1909.8</ele>
        <time>2024-06-14T09:52:32Z</time>
      </trkpt>
      <trkpt lat="41.954129376" lon="14.097587317">
        <ele>1912.2</ele>
        <time>2024-06-14T09:52:46Z</time>
      </trkpt>
      <trkpt lat="41.954229120" lon="14.097596789">
        <ele>1915.1</ele>
        <time>2024-06-14T09:53:02Z</time>
      </trkpt>
      <trkpt lat="41.954424167" lon="14.097539038">
        <ele>1920.4</ele>
        <time>2024-06-14T09:53:35Z</time>
      </trkpt>
      <trkpt lat="41.954503376" lon="14.097495954">
        <ele>1922.3</ele>
        <time>2024-06-14T09:53:51Z</time>
      </trkpt>
      <trkpt lat="41.954690376" lon="14.097558148">
        <ele>1926.1</ele>
        <time>2024-06-14T09:54:22Z</time>
      </trkpt>
      <trkpt lat="41.954751816" lon="14.097535182">
        <ele>1928.5</ele>
        <time>2024-06-14T09:54:37Z</time>
      </trkpt>
      <trkpt lat="41.954832785" lon="14.097437113">
        <ele>1933.3</ele>
        <time>2024-06-14T09:55:08Z</time>
      </trkpt>
      <trkpt lat="41.954934709" lon="14.097413225">
        <ele>1937.7</ele>
        <time>2024-06-14T09:55:38Z</time>
      </trkpt>
      <trkpt lat="41.955041494" lon="14.097334603">
        <ele>1942.0</ele>
        <time>2024-06-14T09:56:06Z</time>
      </trkpt>
      <trkpt lat="41.955152722" lon="14.097388247">
        <ele>1944.4</ele>
        <time>2024-06-14T09:56:24Z</time>
      </trkpt>
      <trkpt lat="41.955256239" lon="14.097365281">
        <ele>1945.4</ele>
        <time>2024-06-14T09:56:41Z</time>
      </trkpt>
      <trkpt lat="41.955346512" lon="14.097298477">
        <ele>1947.3</ele>
        <time>2024-06-14T09:56:56Z</time>
      </trkpt>
      <trkpt lat="41.955366544" lon="14.097251119">
        <ele>1948.7</ele>
        <time>2024-06-14T09:57:02Z</time>
      </trkpt>
      <trkpt lat="41.955519011" lon="14.097179705">
        <ele>1952.6</ele>
        <time>2024-06-14T09:57:33Z</time>
      </trkpt>
      <trkpt lat="41.955672316" lon="14.096997147">
        <ele>1959.8</ele>
        <time>2024-06-14T09:58:22Z</time>
      </trkpt>
      <trkpt lat="41.955775833" lon="14.097015839">
        <ele>1965.1</ele>
        <time>2024-06-14T09:59:15Z</time>
      </trkpt>
      <trkpt lat="41.955824112" lon="14.096995890">
        <ele>1968.4</ele>
        <time>2024-06-14T09:59:31Z</time>
      </trkpt>
      <trkpt lat="41.955840206" lon="14.097119188">
        <ele>1971.3</ele>
        <time>2024-06-14T10:00:13Z</time>
      </trkpt>
      <trkpt lat="41.955851689" lon="14.097119691">
        <ele>1972.8</ele>
        <time>2024-06-14T10:00:46Z</time>
      </trkpt>
      <trkpt lat="41.955898292" lon="14.097085912">
        <ele>1974.2</ele>
        <time>2024-06-14T10:01:00Z</time>
      </trkpt>
      <trkpt lat="41.955963755" lon="14.097082308">
        <ele>1976.6</ele>
        <time>2024-06-14T10:01:42Z</time>
      </trkpt>
      <trkpt lat="41.956003234" lon="14.097038135">
        <ele>1976.6</ele>
        <time>2024-06-14T10:02:01Z</time>
      </trkpt>
      <trkpt lat="41.956310011" lon="14.097002763">
        <ele>1986.2</ele>
        <time>2024-06-14T10:03:15Z</time>
      </trkpt>
      <trkpt lat="41.956353430" lon="14.096936211">
        <ele>1987.7</ele>
        <time>2024-06-14T10:03:29Z</time>
      </trkpt>
      <trkpt lat="41.956338175" lon="14.096900672">
        <ele>1989.1</ele>
        <time>2024-06-14T10:04:03Z</time>
      </trkpt>
      <trkpt lat="41.956483433" lon="14.096829425">
        <ele>1992.0</ele>
        <time>2024-06-14T10:05:06Z</time>
      </trkpt>
      <trkpt lat="41.956718797" lon="14.096655669">
        <ele>1991.0</ele>
        <time>2024-06-14T10:05:33Z</time>
      </trkpt>
      <trkpt lat="41.956861541" lon="14.096596241">
        <ele>1991.5</ele>
        <time>2024-06-14T10:05:49Z</time>
      </trkpt>
      <trkpt lat="41.957187429" lon="14.096522313">
        <ele>1994.4</ele>
        <time>2024-06-14T10:06:27Z</time>
      </trkpt>
      <trkpt lat="41.957315672" lon="14.096539747">
        <ele>1995.8</ele>
        <time>2024-06-14T10:06:45Z</time>
      </trkpt>
      <trkpt lat="41.957443245" lon="14.096510662">
        <ele>1996.8</ele>
        <time>2024-06-14T10:07:02Z</time>
      </trkpt>
      <trkpt lat="41.957815150" lon="14.096280998">
        <ele>2002.6</ele>
        <time>2024-06-14T10:07:55Z</time>
      </trkpt>
      <trkpt lat="41.958295265" lon="14.096157029">
        <ele>2007.4</ele>
        <time>2024-06-14T10:08:50Z</time>
      </trkpt>
      <trkpt lat="41.959045110" lon="14.096170440">
        <ele>2016.5</ele>
        <time>2024-06-14T10:10:27Z</time>
      </trkpt>
      <trkpt lat="41.959562274" lon="14.096143702">
        <ele>2021.3</ele>
        <time>2024-06-14T10:11:31Z</time>
      </trkpt>
      <trkpt lat="41.959675681" lon="14.096120736">
        <ele>2022.8</ele>
        <time>2024-06-14T10:11:46Z</time>
      </trkpt>
      <trkpt lat="41.959790513" lon="14.096071450">
        <ele>2024.7</ele>
        <time>2024-06-14T10:12:02Z</time>
      </trkpt>
      <trkpt lat="41.959969299" lon="14.096095422">
        <ele>2026.6</ele>
        <time>2024-06-14T10:12:25Z</time>
      </trkpt>
      <trkpt lat="41.960179014" lon="14.096074887">
        <ele>2030.4</ele>
        <time>2024-06-14T10:12:55Z</time>
      </trkpt>
      <trkpt lat="41.960502472" lon="14.096218804">
        <ele>2037.7</ele>
        <time>2024-06-14T10:13:42Z</time>
      </trkpt>
      <trkpt lat="41.960685952" lon="14.096166417">
        <ele>2039.6</ele>
        <time>2024-06-14T10:14:08Z</time>
      </trkpt>
      <trkpt lat="41.960839676" lon="14.096078072">
        <ele>2044.4</ele>
        <time>2024-06-14T10:14:41Z</time>
      </trkpt>
      <trkpt lat="41.960907318" lon="14.096092908">
        <ele>2047.8</ele>
        <time>2024-06-14T10:15:00Z</time>
      </trkpt>
      <trkpt lat="41.960947299" lon="14.096073713">
        <ele>2049.7</ele>
        <time>2024-06-14T10:15:17Z</time>
      </trkpt>
      <trkpt lat="41.961010247" lon="14.096082263">
        <ele>2050.6</ele>
        <time>2024-06-14T10:15:35Z</time>
      </trkpt>
      <trkpt lat="41.961203367" lon="14.096032558">
        <ele>2053.0</ele>
        <time>2024-06-14T10:16:07Z</time>
      </trkpt>
      <trkpt lat="41.961487932" lon="14.096010262">
        <ele>2059.8</ele>
        <time>2024-06-14T10:16:58Z</time>
      </trkpt>
      <trkpt lat="41.961730002" lon="14.095950080">
        <ele>2067.4</ele>
        <time>2024-06-14T10:17:45Z</time>
      </trkpt>
      <trkpt lat="41.961784316" lon="14.095902136">
        <ele>2069.9</ele>
        <time>2024-06-14T10:18:00Z</time>
      </trkpt>
      <trkpt lat="41.961858831" lon="14.095916469">
        <ele>2071.8</ele>
        <time>2024-06-14T10:18:15Z</time>
      </trkpt>
      <trkpt lat="41.961944411" lon="14.095902219">
        <ele>2073.7</ele>
        <time>2024-06-14T10:18:32Z</time>
      </trkpt>
      <trkpt lat="41.962021859" lon="14.095885707">
        <ele>2075.6</ele>
        <time>2024-06-14T10:18:48Z</time>
      </trkpt>
      <trkpt lat="41.962080617" lon="14.095840780">
        <ele>2078.0</ele>
        <time>2024-06-14T10:19:04Z</time>
      </trkpt>
      <trkpt lat="41.962173656" lon="14.095811527">
        <ele>2080.4</ele>
        <time>2024-06-14T10:19:23Z</time>
      </trkpt>
      <trkpt lat="41.962287314" lon="14.095803900">
        <ele>2082.3</ele>
        <time>2024-06-14T10:20:05Z</time>
      </trkpt>
      <trkpt lat="41.962383622" lon="14.095830973">
        <ele>2083.8</ele>
        <time>2024-06-14T10:20:20Z</time>
      </trkpt>
      <trkpt lat="41.962568695" lon="14.095829884">
        <ele>2087.6</ele>
        <time>2024-06-14T10:20:51Z</time>
      </trkpt>
      <trkpt lat="41.962704901" lon="14.095850838">
        <ele>2090.5</ele>
        <time>2024-06-14T10:21:10Z</time>
      </trkpt>
      <trkpt lat="41.962832054" lon="14.095911607">
        <ele>2092.4</ele>
        <time>2024-06-14T10:22:24Z</time>
      </trkpt>
      <trkpt lat="41.963141933" lon="14.095996851">
        <ele>2099.2</ele>
        <time>2024-06-14T10:23:14Z</time>
      </trkpt>
      <trkpt lat="41.963238325" lon="14.095972711">
        <ele>2101.6</ele>
        <time>2024-06-14T10:23:29Z</time>
      </trkpt>
      <trkpt lat="41.963590113" lon="14.095976315">
        <ele>2106.4</ele>
        <time>2024-06-14T10:24:16Z</time>
      </trkpt>
      <trkpt lat="41.963870823" lon="14.096023925">
        <ele>2111.2</ele>
        <time>2024-06-14T10:24:57Z</time>
      </trkpt>
      <trkpt lat="41.964040808" lon="14.095974052">
        <ele>2114.6</ele>
        <time>2024-06-14T10:25:29Z</time>
      </trkpt>
      <trkpt lat="41.964557804" lon="14.095947733">
        <ele>2121.3</ele>
        <time>2024-06-14T10:26:39Z</time>
      </trkpt>
      <trkpt lat="41.964647239" lon="14.095905069">
        <ele>2123.2</ele>
        <time>2024-06-14T10:26:55Z</time>
      </trkpt>
      <trkpt lat="41.964775566" lon="14.095926276">
        <ele>2126.6</ele>
        <time>2024-06-14T10:27:14Z</time>
      </trkpt>
      <trkpt lat="41.965094497" lon="14.095887719">
        <ele>2131.4</ele>
        <time>2024-06-14T10:28:06Z</time>
      </trkpt>
      <trkpt lat="41.965236319" lon="14.095910098">
        <ele>2133.3</ele>
        <time>2024-06-14T10:28:38Z</time>
      </trkpt>
      <trkpt lat="41.965318713" lon="14.095885372">
        <ele>2134.3</ele>
        <time>2024-06-14T10:29:17Z</time>
      </trkpt>
      <trkpt lat="41.965451734" lon="14.095889647">
        <ele>2135.7</ele>
        <time>2024-06-14T10:29:34Z</time>
      </trkpt>
      <trkpt lat="41.965696486" lon="14.095955361">
        <ele>2139.6</ele>
        <time>2024-06-14T10:30:28Z</time>
      </trkpt>
      <trkpt lat="41.965747699" lon="14.095986458">
        <ele>2140.0</ele>
        <time>2024-06-14T10:31:18Z</time>
      </trkpt>
      <trkpt lat="41.965754740" lon="14.095999198">
        <ele>2140.0</ele>
        <time>2024-06-14T10:31:31Z</time>
      </trkpt>
      <trkpt lat="41.965740658" lon="14.096002132">
        <ele>2139.1</ele>
        <time>2024-06-14T10:31:58Z</time>
      </trkpt>
      <trkpt lat="41.965720877" lon="14.095984865">
        <ele>2138.6</ele>
        <time>2024-06-14T10:32:10Z</time>
      </trkpt>
      <trkpt lat="41.965761026" lon="14.095977824">
        <ele>2140.5</ele>
        <time>2024-06-14T10:32:42Z</time>
      </trkpt>
      <trkpt lat="41.965743508" lon="14.095984865">
        <ele>2141.0</ele>
        <time>2024-06-14T10:33:33Z</time>
      </trkpt>
      <trkpt lat="41.965762535" lon="14.095951840">
        <ele>2138.6</ele>
        <time>2024-06-14T10:41:46Z</time>
      </trkpt>
      <trkpt lat="41.965739066" lon="14.095951505">
        <ele>2135.7</ele>
        <time>2024-06-14T11:21:37Z</time>
      </trkpt>
      <trkpt lat="41.965739652" lon="14.095967431">
        <ele>2138.6</ele>
        <time>2024-06-14T11:22:57Z</time>
      </trkpt>
      <trkpt lat="41.965519041" lon="14.095873218">
        <ele>2139.1</ele>
        <time>2024-06-14T11:23:54Z</time>
      </trkpt>
      <trkpt lat="41.965313265" lon="14.095857125">
        <ele>2136.7</ele>
        <time>2024-06-14T11:24:16Z</time>
      </trkpt>
      <trkpt lat="41.965188291" lon="14.095879588">
        <ele>2134.7</ele>
        <time>2024-06-14T11:24:32Z</time>
      </trkpt>
      <trkpt lat="41.965043284" lon="14.095865255">
        <ele>2133.8</ele>
        <time>2024-06-14T11:24:48Z</time>
      </trkpt>
      <trkpt lat="41.964753354" lon="14.095909009">
        <ele>2128.5</ele>
        <time>2024-06-14T11:25:24Z</time>
      </trkpt>
      <trkpt lat="41.964550512" lon="14.095898531">
        <ele>2126.6</ele>
        <time>2024-06-14T11:25:44Z</time>
      </trkpt>
      <trkpt lat="41.964513548" lon="14.095929628">
        <ele>2125.6</ele>
        <time>2024-06-14T11:25:48Z</time>
      </trkpt>
      <trkpt lat="41.963962773" lon="14.095947901">
        <ele>2117.0</ele>
        <time>2024-06-14T11:27:00Z</time>
      </trkpt>
      <trkpt lat="41.963851377" lon="14.095998611">
        <ele>2114.1</ele>
        <time>2024-06-14T11:27:16Z</time>
      </trkpt>
      <trkpt lat="41.963697569" lon="14.095987380">
        <ele>2111.2</ele>
        <time>2024-06-14T11:27:33Z</time>
      </trkpt>
      <trkpt lat="41.963565890" lon="14.095947482">
        <ele>2108.3</ele>
        <time>2024-06-14T11:27:48Z</time>
      </trkpt>
      <trkpt lat="41.963487854" lon="14.095965503">
        <ele>2106.9</ele>
        <time>2024-06-14T11:27:57Z</time>
      </trkpt>
      <trkpt lat="41.963157356" lon="14.095959384">
        <ele>2101.6</ele>
        <time>2024-06-14T11:28:33Z</time>
      </trkpt>
      <trkpt lat="41.963055516" lon="14.095974136">
        <ele>2099.2</ele>
        <time>2024-06-14T11:28:48Z</time>
      </trkpt>
      <trkpt lat="41.962771788" lon="14.095883360">
        <ele>2094.4</ele>
        <time>2024-06-14T11:29:20Z</time>
      </trkpt>
      <trkpt lat="41.962561403" lon="14.095802056">
        <ele>2091.5</ele>
        <time>2024-06-14T11:29:47Z</time>
      </trkpt>
      <trkpt lat="41.962326961" lon="14.095808845">
        <ele>2087.2</ele>
        <time>2024-06-14T11:30:17Z</time>
      </trkpt>
      <trkpt lat="41.962212883" lon="14.095781101">
        <ele>2085.2</ele>
        <time>2024-06-14T11:30:33Z</time>
      </trkpt>
      <trkpt lat="41.962102829" lon="14.095796691">
        <ele>2082.8</ele>
        <time>2024-06-14T11:30:48Z</time>
      </trkpt>
      <trkpt lat="41.961871488" lon="14.095879924">
        <ele>2074.7</ele>
        <time>2024-06-14T11:31:28Z</time>
      </trkpt>
      <trkpt lat="41.961764032" lon="14.095868273">
        <ele>2071.8</ele>
        <time>2024-06-14T11:31:41Z</time>
      </trkpt>
      <trkpt lat="41.961694630" lon="14.095917475">
        <ele>2068.9</ele>
        <time>2024-06-14T11:31:53Z</time>
      </trkpt>
      <trkpt lat="41.961574350" lon="14.095955277">
        <ele>2065.1</ele>
        <time>2024-06-14T11:32:07Z</time>
      </trkpt>
      <trkpt lat="41.961221807" lon="14.095991571">
        <ele>2056.4</ele>
        <time>2024-06-14T11:32:48Z</time>
      </trkpt>
      <trkpt lat="41.961010080" lon="14.096062817">
        <ele>2052.1</ele>
        <time>2024-06-14T11:33:11Z</time>
      </trkpt>
      <trkpt lat="41.960848728" lon="14.096076731">
        <ele>2048.2</ele>
        <time>2024-06-14T11:33:30Z</time>
      </trkpt>
      <trkpt lat="41.960596433" lon="14.096178319">
        <ele>2039.1</ele>
        <time>2024-06-14T11:34:10Z</time>
      </trkpt>
      <trkpt lat="41.960432315" lon="14.096182678">
        <ele>2036.2</ele>
        <time>2024-06-14T11:34:25Z</time>
      </trkpt>
      <trkpt lat="41.960129980" lon="14.096060470">
        <ele>2031.4</ele>
        <time>2024-06-14T11:34:57Z</time>
      </trkpt>
      <trkpt lat="41.959931664" lon="14.096074216">
        <ele>2027.1</ele>
        <time>2024-06-14T11:35:19Z</time>
      </trkpt>
      <trkpt lat="41.959854215" lon="14.096098188">
        <ele>2025.6</ele>
        <time>2024-06-14T11:35:27Z</time>
      </trkpt>
      <trkpt lat="41.959750783" lon="14.096047562">
        <ele>2025.2</ele>
        <time>2024-06-14T11:35:38Z</time>
      </trkpt>
      <trkpt lat="41.959567806" lon="14.096114030">
        <ele>2022.8</ele>
        <time>2024-06-14T11:35:57Z</time>
      </trkpt>
      <trkpt lat="41.959368400" lon="14.096117131">
        <ele>2020.3</ele>
        <time>2024-06-14T11:36:16Z</time>
      </trkpt>
      <trkpt lat="41.959063048" lon="14.096153844">
        <ele>2016.5</ele>
        <time>2024-06-14T11:36:46Z</time>
      </trkpt>
      <trkpt lat="41.958623836" lon="14.096143199">
        <ele>2011.2</ele>
        <time>2024-06-14T11:37:28Z</time>
      </trkpt>
      <trkpt lat="41.958474303" lon="14.096091818">
        <ele>2008.8</ele>
        <time>2024-06-14T11:37:43Z</time>
      </trkpt>
      <trkpt lat="41.958215972" lon="14.096128950">
        <ele>2005.0</ele>
        <time>2024-06-14T11:38:08Z</time>
      </trkpt>
      <trkpt lat="41.958017992" lon="14.096216205">
        <ele>2003.5</ele>
        <time>2024-06-14T11:38:27Z</time>
      </trkpt>
      <trkpt lat="41.957821017" lon="14.096246380">
        <ele>2001.6</ele>
        <time>2024-06-14T11:38:46Z</time>
      </trkpt>
      <trkpt lat="41.957439640" lon="14.096466741">
        <ele>1997.3</ele>
        <time>2024-06-14T11:39:43Z</time>
      </trkpt>
      <trkpt lat="41.957349703" lon="14.096501777">
        <ele>1995.3</ele>
        <time>2024-06-14T11:39:55Z</time>
      </trkpt>
      <trkpt lat="41.957240738" lon="14.096528515">
        <ele>1993.4</ele>
        <time>2024-06-14T11:40:09Z</time>
      </trkpt>
      <trkpt lat="41.957141077" lon="14.096502448">
        <ele>1992.5</ele>
        <time>2024-06-14T11:40:21Z</time>
      </trkpt>
      <trkpt lat="41.956908144" lon="14.096567910">
        <ele>1991.0</ele>
        <time>2024-06-14T11:40:44Z</time>
      </trkpt>
      <trkpt lat="41.956774620" lon="14.096573777">
        <ele>1989.6</ele>
        <time>2024-06-14T11:40:57Z</time>
      </trkpt>
      <trkpt lat="41.956555769" lon="14.096740829">
        <ele>1989.1</ele>
        <time>2024-06-14T11:41:22Z</time>
      </trkpt>
      <trkpt lat="41.956391819" lon="14.096834622">
        <ele>1990.1</ele>
        <time>2024-06-14T11:41:41Z</time>
      </trkpt>
      <trkpt lat="41.956310850" lon="14.096963955">
        <ele>1988.6</ele>
        <time>2024-06-14T11:41:59Z</time>
      </trkpt>
      <trkpt lat="41.956211440" lon="14.096993711">
        <ele>1984.8</ele>
        <time>2024-06-14T11:42:13Z</time>
      </trkpt>
      <trkpt lat="41.956096273" lon="14.096989436">
        <ele>1981.9</ele>
        <time>2024-06-14T11:42:30Z</time>
      </trkpt>
      <trkpt lat="41.955992924" lon="14.097016174">
        <ele>1979.0</ele>
        <time>2024-06-14T11:42:46Z</time>
      </trkpt>
      <trkpt lat="41.955928467" lon="14.097078619">
        <ele>1976.1</ele>
        <time>2024-06-14T11:43:01Z</time>
      </trkpt>
      <trkpt lat="41.955865435" lon="14.097095299">
        <ele>1972.8</ele>
        <time>2024-06-14T11:43:14Z</time>
      </trkpt>
      <trkpt lat="41.955814809" lon="14.096972505">
        <ele>1968.4</ele>
        <time>2024-06-14T11:43:39Z</time>
      </trkpt>
      <trkpt lat="41.955766529" lon="14.096976696">
        <ele>1965.1</ele>
        <time>2024-06-14T11:43:53Z</time>
      </trkpt>
      <trkpt lat="41.955719925" lon="14.097015671">
        <ele>1960.8</ele>
        <time>2024-06-14T11:44:16Z</time>
      </trkpt>
      <trkpt lat="41.955647003" lon="14.097007625">
        <ele>1956.4</ele>
        <time>2024-06-14T11:44:42Z</time>
      </trkpt>
      <trkpt lat="41.955525298" lon="14.097161349">
        <ele>1950.7</ele>
        <time>2024-06-14T11:45:11Z</time>
      </trkpt>
      <trkpt lat="41.955426643" lon="14.097198146">
        <ele>1947.8</ele>
        <time>2024-06-14T11:45:24Z</time>
      </trkpt>
      <trkpt lat="41.955363192" lon="14.097280540">
        <ele>1945.4</ele>
        <time>2024-06-14T11:45:35Z</time>
      </trkpt>
      <trkpt lat="41.955286330" lon="14.097330747">
        <ele>1944.4</ele>
        <time>2024-06-14T11:45:44Z</time>
      </trkpt>
      <trkpt lat="41.955181807" lon="14.097360838">
        <ele>1942.0</ele>
        <time>2024-06-14T11:45:56Z</time>
      </trkpt>
      <trkpt lat="41.955089355" lon="14.097309876">
        <ele>1939.6</ele>
        <time>2024-06-14T11:46:06Z</time>
      </trkpt>
      <trkpt lat="41.954937894" lon="14.097379530">
        <ele>1935.8</ele>
        <time>2024-06-14T11:46:33Z</time>
      </trkpt>
      <trkpt lat="41.954894392" lon="14.097425295">
        <ele>1933.3</ele>
        <time>2024-06-14T11:46:45Z</time>
      </trkpt>
      <trkpt lat="41.954831025" lon="14.097409872">
        <ele>1931.4</ele>
        <time>2024-06-14T11:46:56Z</time>
      </trkpt>
      <trkpt lat="41.954805292" lon="14.097474748">
        <ele>1929.0</ele>
        <time>2024-06-14T11:47:09Z</time>
      </trkpt>
      <trkpt lat="41.954768160" lon="14.097517831">
        <ele>1926.6</ele>
        <time>2024-06-14T11:47:21Z</time>
      </trkpt>
      <trkpt lat="41.954705799" lon="14.097544234">
        <ele>1924.7</ele>
        <time>2024-06-14T11:47:32Z</time>
      </trkpt>
      <trkpt lat="41.954646790" lon="14.097500816">
        <ele>1923.2</ele>
        <time>2024-06-14T11:47:39Z</time>
      </trkpt>
      <trkpt lat="41.954536149" lon="14.097474413">
        <ele>1920.4</ele>
        <time>2024-06-14T11:47:53Z</time>
      </trkpt>
      <trkpt lat="41.954379491" lon="14.097535098">
        <ele>1918.0</ele>
        <time>2024-06-14T11:48:15Z</time>
      </trkpt>
      <trkpt lat="41.954342024" lon="14.097533338">
        <ele>1917.0</ele>
        <time>2024-06-14T11:48:19Z</time>
      </trkpt>
      <trkpt lat="41.954279998" lon="14.097585138">
        <ele>1916.0</ele>
        <time>2024-06-14T11:48:26Z</time>
      </trkpt>
      <trkpt lat="41.954218224" lon="14.097551275">
        <ele>1914.6</ele>
        <time>2024-06-14T11:48:32Z</time>
      </trkpt>
      <trkpt lat="41.954161562" lon="14.097560998">
        <ele>1913.2</ele>
        <time>2024-06-14T11:48:37Z</time>
      </trkpt>
      <trkpt lat="41.954066344" lon="14.097516406">
        <ele>1909.8</ele>
        <time>2024-06-14T11:48:49Z</time>
      </trkpt>
      <trkpt lat="41.953985039" lon="14.097519256">
        <ele>1906.4</ele>
        <time>2024-06-14T11:49:01Z</time>
      </trkpt>
      <trkpt lat="41.953912536" lon="14.097556472">
        <ele>1905.0</ele>
        <time>2024-06-14T11:49:09Z</time>
      </trkpt>
      <trkpt lat="41.953845481" lon="14.097447507">
        <ele>1903.5</ele>
        <time>2024-06-14T11:49:23Z</time>
      </trkpt>
      <trkpt lat="41.953846486" lon="14.097180879">
        <ele>1898.7</ele>
        <time>2024-06-14T11:49:44Z</time>
      </trkpt>
      <trkpt lat="41.953821676" lon="14.097122625">
        <ele>1898.7</ele>
        <time>2024-06-14T11:49:49Z</time>
      </trkpt>
      <trkpt lat="41.953803152" lon="14.096964123">
        <ele>1896.3</ele>
        <time>2024-06-14T11:50:04Z</time>
      </trkpt>
      <trkpt lat="41.953756716" lon="14.096892877">
        <ele>1896.3</ele>
        <time>2024-06-14T11:50:13Z</time>
      </trkpt>
      <trkpt lat="41.953656888" lon="14.096806878">
        <ele>1895.4</ele>
        <time>2024-06-14T11:50:27Z</time>
      </trkpt>
      <trkpt lat="41.953546833" lon="14.096778212">
        <ele>1892.5</ele>
        <time>2024-06-14T11:50:45Z</time>
      </trkpt>
      <trkpt lat="41.953463349" lon="14.096654579">
        <ele>1889.1</ele>
        <time>2024-06-14T11:50:59Z</time>
      </trkpt>
      <trkpt lat="41.953368885" lon="14.096663129">
        <ele>1886.2</ele>
        <time>2024-06-14T11:51:57Z</time>
      </trkpt>
      <trkpt lat="41.953207785" lon="14.096744433">
        <ele>1885.8</ele>
        <time>2024-06-14T11:52:31Z</time>
      </trkpt>
      <trkpt lat="41.953055738" lon="14.096757174">
        <ele>1885.3</ele>
        <time>2024-06-14T11:52:49Z</time>
      </trkpt>
      <trkpt lat="41.953011816" lon="14.096718281">
        <ele>1885.8</ele>
        <time>2024-06-14T11:52:55Z</time>
      </trkpt>
      <trkpt lat="41.952689867" lon="14.096785169">
        <ele>1883.4</ele>
        <time>2024-06-14T11:53:25Z</time>
      </trkpt>
      <trkpt lat="41.952501694" lon="14.096953310">
        <ele>1879.5</ele>
        <time>2024-06-14T11:53:56Z</time>
      </trkpt>
      <trkpt lat="41.952414271" lon="14.096935037">
        <ele>1876.6</ele>
        <time>2024-06-14T11:54:10Z</time>
      </trkpt>
      <trkpt lat="41.952257026" lon="14.096974684">
        <ele>1870.4</ele>
        <time>2024-06-14T11:54:35Z</time>
      </trkpt>
      <trkpt lat="41.952165328" lon="14.097052887">
        <ele>1867.5</ele>
        <time>2024-06-14T11:54:50Z</time>
      </trkpt>
      <trkpt lat="41.951871039" lon="14.097245084">
        <ele>1861.2</ele>
        <time>2024-06-14T11:55:20Z</time>
      </trkpt>
      <trkpt lat="41.951688314" lon="14.097288000">
        <ele>1858.4</ele>
        <time>2024-06-14T11:55:37Z</time>
      </trkpt>
      <trkpt lat="41.951516401" lon="14.097354216">
        <ele>1855.0</ele>
        <time>2024-06-14T11:55:55Z</time>
      </trkpt>
      <trkpt lat="41.951396791" lon="14.097344661">
        <ele>1852.1</ele>
        <time>2024-06-14T11:56:09Z</time>
      </trkpt>
      <trkpt lat="41.951295957" lon="14.097390343">
        <ele>1848.8</ele>
        <time>2024-06-14T11:56:21Z</time>
      </trkpt>
      <trkpt lat="41.951209539" lon="14.097362515">
        <ele>1845.4</ele>
        <time>2024-06-14T11:56:33Z</time>
      </trkpt>
      <trkpt lat="41.950677792" lon="14.097522441">
        <ele>1836.7</ele>
        <time>2024-06-14T11:57:16Z</time>
      </trkpt>
      <trkpt lat="41.950627500" lon="14.097521352">
        <ele>1836.3</ele>
        <time>2024-06-14T11:57:20Z</time>
      </trkpt>
      <trkpt lat="41.950429436" lon="14.097623024">
        <ele>1833.4</ele>
        <time>2024-06-14T11:57:38Z</time>
      </trkpt>
      <trkpt lat="41.950087370" lon="14.097719584">
        <ele>1830.0</ele>
        <time>2024-06-14T11:58:04Z</time>
      </trkpt>
      <trkpt lat="41.949937586" lon="14.097686727">
        <ele>1827.1</ele>
        <time>2024-06-14T11:58:16Z</time>
      </trkpt>
      <trkpt lat="41.949841445" lon="14.097638614">
        <ele>1825.2</ele>
        <time>2024-06-14T11:58:24Z</time>
      </trkpt>
      <trkpt lat="41.949774641" lon="14.097639620">
        <ele>1824.2</ele>
        <time>2024-06-14T11:58:29Z</time>
      </trkpt>
      <trkpt lat="41.949701551" lon="14.097711118">
        <ele>1822.8</ele>
        <time>2024-06-14T11:58:37Z</time>
      </trkpt>
      <trkpt lat="41.949599124" lon="14.097748753">
        <ele>1822.3</ele>
        <time>2024-06-14T11:58:46Z</time>
      </trkpt>
      <trkpt lat="41.949548498" lon="14.097789656">
        <ele>1821.8</ele>
        <time>2024-06-14T11:58:51Z</time>
      </trkpt>
      <trkpt lat="41.949489322" lon="14.097794518">
        <ele>1821.8</ele>
        <time>2024-06-14T11:58:55Z</time>
      </trkpt>
      <trkpt lat="41.949324533" lon="14.097729390">
        <ele>1821.8</ele>
        <time>2024-06-14T11:59:07Z</time>
      </trkpt>
      <trkpt lat="41.949224705" lon="14.097723355">
        <ele>1821.8</ele>
        <time>2024-06-14T11:59:14Z</time>
      </trkpt>
      <trkpt lat="41.948858499" lon="14.097816981">
        <ele>1817.0</ele>
        <time>2024-06-14T11:59:48Z</time>
      </trkpt>
      <trkpt lat="41.948605366" lon="14.097680105">
        <ele>1813.2</ele>
        <time>2024-06-14T12:00:17Z</time>
      </trkpt>
      <trkpt lat="41.948408978" lon="14.097671052">
        <ele>1808.9</ele>
        <time>2024-06-14T12:00:38Z</time>
      </trkpt>
      <trkpt lat="41.948325410" lon="14.097637357">
        <ele>1807.4</ele>
        <time>2024-06-14T12:00:50Z</time>
      </trkpt>
      <trkpt lat="41.948209656" lon="14.097641800">
        <ele>1805.5</ele>
        <time>2024-06-14T12:01:02Z</time>
      </trkpt>
      <trkpt lat="41.948034307" lon="14.097506432">
        <ele>1802.1</ele>
        <time>2024-06-14T12:01:23Z</time>
      </trkpt>
      <trkpt lat="41.947888797" lon="14.097483801">
        <ele>1800.2</ele>
        <time>2024-06-14T12:01:36Z</time>
      </trkpt>
      <trkpt lat="41.947671035" lon="14.097489584">
        <ele>1798.8</ele>
        <time>2024-06-14T12:01:55Z</time>
      </trkpt>
      <trkpt lat="41.947381273" lon="14.097566195">
        <ele>1797.8</ele>
        <time>2024-06-14T12:02:21Z</time>
      </trkpt>
      <trkpt lat="41.947029233" lon="14.097524369">
        <ele>1793.5</ele>
        <time>2024-06-14T12:02:51Z</time>
      </trkpt>
      <trkpt lat="41.946659423" lon="14.097422194">
        <ele>1784.8</ele>
        <time>2024-06-14T12:03:36Z</time>
      </trkpt>
      <trkpt lat="41.946394388" lon="14.097517077">
        <ele>1779.1</ele>
        <time>2024-06-14T12:05:11Z</time>
      </trkpt>
      <trkpt lat="41.946295230" lon="14.097522441">
        <ele>1777.6</ele>
        <time>2024-06-14T12:05:26Z</time>
      </trkpt>
      <trkpt lat="41.946011251" lon="14.097607937">
        <ele>1772.8</ele>
        <time>2024-06-14T12:05:54Z</time>
      </trkpt>
      <trkpt lat="41.945860041" lon="14.097693851">
        <ele>1771.4</ele>
        <time>2024-06-14T12:06:09Z</time>
      </trkpt>
      <trkpt lat="41.945726769" lon="14.097896609">
        <ele>1769.4</ele>
        <time>2024-06-14T12:06:22Z</time>
      </trkpt>
      <trkpt lat="41.945626102" lon="14.097957797">
        <ele>1769.9</ele>
        <time>2024-06-14T12:06:32Z</time>
      </trkpt>
      <trkpt lat="41.945355032" lon="14.098043796">
        <ele>1769.4</ele>
        <time>2024-06-14T12:07:00Z</time>
      </trkpt>
      <trkpt lat="41.945256796" lon="14.098129794">
        <ele>1769.9</ele>
        <time>2024-06-14T12:07:17Z</time>
      </trkpt>
      <trkpt lat="41.945117489" lon="14.098169189">
        <ele>1770.4</ele>
        <time>2024-06-14T12:07:32Z</time>
      </trkpt>
      <trkpt lat="41.945077339" lon="14.098349316">
        <ele>1769.0</ele>
        <time>2024-06-14T12:07:48Z</time>
      </trkpt>
      <trkpt lat="41.944971476" lon="14.098418970">
        <ele>1768.5</ele>
        <time>2024-06-14T12:08:06Z</time>
      </trkpt>
      <trkpt lat="41.944850525" lon="14.098419137">
        <ele>1768.5</ele>
        <time>2024-06-14T12:08:58Z</time>
      </trkpt>
      <trkpt lat="41.944618849" lon="14.098514775">
        <ele>1769.0</ele>
        <time>2024-06-14T12:09:32Z</time>
      </trkpt>
      <trkpt lat="41.944504268" lon="14.098568838">
        <ele>1768.0</ele>
        <time>2024-06-14T12:09:43Z</time>
      </trkpt>
      <trkpt lat="41.944360267" lon="14.098524246">
        <ele>1767.0</ele>
        <time>2024-06-14T12:09:58Z</time>
      </trkpt>
      <trkpt lat="41.944272257" lon="14.098547548">
        <ele>1767.0</ele>
        <time>2024-06-14T12:10:07Z</time>
      </trkpt>
      <trkpt lat="41.944137979" lon="14.098539418">
        <ele>1767.5</ele>
        <time>2024-06-14T12:10:23Z</time>
      </trkpt>
      <trkpt lat="41.944001103" lon="14.098563474">
        <ele>1769.4</ele>
        <time>2024-06-14T12:10:39Z</time>
      </trkpt>
      <trkpt lat="41.943719806" lon="14.098705212">
        <ele>1771.8</ele>
        <time>2024-06-14T12:11:12Z</time>
      </trkpt>
      <trkpt lat="41.943632634" lon="14.098672103">
        <ele>1771.4</ele>
        <time>2024-06-14T12:11:21Z</time>
      </trkpt>
      <trkpt lat="41.943507660" lon="14.098762041">
        <ele>1769.4</ele>
        <time>2024-06-14T12:11:35Z</time>
      </trkpt>
      <trkpt lat="41.942963507" lon="14.099012325">
        <ele>1762.7</ele>
        <time>2024-06-14T12:12:33Z</time>
      </trkpt>
      <trkpt lat="41.942931237" lon="14.099051049">
        <ele>1761.8</ele>
        <time>2024-06-14T12:12:37Z</time>
      </trkpt>
      <trkpt lat="41.942565283" lon="14.099111315">
        <ele>1751.2</ele>
        <time>2024-06-14T12:13:19Z</time>
      </trkpt>
      <trkpt lat="41.942445505" lon="14.099240899">
        <ele>1747.3</ele>
        <time>2024-06-14T12:13:36Z</time>
      </trkpt>
      <trkpt lat="41.942384737" lon="14.099221872">
        <ele>1745.9</ele>
        <time>2024-06-14T12:13:43Z</time>
      </trkpt>
      <trkpt lat="41.942262277" lon="14.099246850">
        <ele>1742.5</ele>
        <time>2024-06-14T12:13:56Z</time>
      </trkpt>
      <trkpt lat="41.942196814" lon="14.099279204">
        <ele>1740.6</ele>
        <time>2024-06-14T12:14:03Z</time>
      </trkpt>
      <trkpt lat="41.942129675" lon="14.099375596">
        <ele>1739.2</ele>
        <time>2024-06-14T12:14:12Z</time>
      </trkpt>
      <trkpt lat="41.942077959" lon="14.099397976">
        <ele>1738.2</ele>
        <time>2024-06-14T12:14:17Z</time>
      </trkpt>
      <trkpt lat="41.941966647" lon="14.099539127">
        <ele>1735.3</ele>
        <time>2024-06-14T12:14:32Z</time>
      </trkpt>
      <trkpt lat="41.941852989" lon="14.099576846">
        <ele>1732.9</ele>
        <time>2024-06-14T12:14:44Z</time>
      </trkpt>
      <trkpt lat="41.941753244" lon="14.099646164">
        <ele>1730.5</ele>
        <time>2024-06-14T12:14:55Z</time>
      </trkpt>
      <trkpt lat="41.941709826" lon="14.099640297">
        <ele>1729.1</ele>
        <time>2024-06-14T12:14:59Z</time>
      </trkpt>
      <trkpt lat="41.941669928" lon="14.099678099">
        <ele>1728.1</ele>
        <time>2024-06-14T12:15:04Z</time>
      </trkpt>
      <trkpt lat="41.941391313" lon="14.099804079">
        <ele>1720.9</ele>
        <time>2024-06-14T12:15:32Z</time>
      </trkpt>
      <trkpt lat="41.941208756" lon="14.099912792">
        <ele>1718.0</ele>
        <time>2024-06-14T12:15:50Z</time>
      </trkpt>
      <trkpt lat="41.941003483" lon="14.099942297">
        <ele>1715.1</ele>
        <time>2024-06-14T12:16:10Z</time>
      </trkpt>
      <trkpt lat="41.940893596" lon="14.100006167">
        <ele>1712.7</ele>
        <time>2024-06-14T12:16:26Z</time>
      </trkpt>
      <trkpt lat="41.940708356" lon="14.100217558">
        <ele>1704.1</ele>
        <time>2024-06-14T12:17:01Z</time>
      </trkpt>
      <trkpt lat="41.940632081" lon="14.100353681">
        <ele>1697.8</ele>
        <time>2024-06-14T12:17:28Z</time>
      </trkpt>
      <trkpt lat="41.940653957" lon="14.100437164">
        <ele>1694.9</ele>
        <time>2024-06-14T12:17:40Z</time>
      </trkpt>
      <trkpt lat="41.940771220" lon="14.100598684">
        <ele>1689.2</ele>
        <time>2024-06-14T12:18:07Z</time>
      </trkpt>
      <trkpt lat="41.940694358" lon="14.100641683">
        <ele>1685.8</ele>
        <time>2024-06-14T12:18:21Z</time>
      </trkpt>
      <trkpt lat="41.940691508" lon="14.100677054">
        <ele>1684.4</ele>
        <time>2024-06-14T12:18:28Z</time>
      </trkpt>
      <trkpt lat="41.940768035" lon="14.100793898">
        <ele>1681.5</ele>
        <time>2024-06-14T12:18:45Z</time>
      </trkpt>
      <trkpt lat="41.940792343" lon="14.100920465">
        <ele>1678.6</ele>
        <time>2024-06-14T12:19:04Z</time>
      </trkpt>
      <trkpt lat="41.940773651" lon="14.101053989">
        <ele>1677.6</ele>
        <time>2024-06-14T12:19:17Z</time>
      </trkpt>
      <trkpt lat="41.940640127" lon="14.101183657">
        <ele>1674.3</ele>
        <time>2024-06-14T12:19:34Z</time>
      </trkpt>
      <trkpt lat="41.940598385" lon="14.101198493">
        <ele>1673.3</ele>
        <time>2024-06-14T12:19:41Z</time>
      </trkpt>
      <trkpt lat="41.940537114" lon="14.101256328">
        <ele>1671.4</ele>
        <time>2024-06-14T12:19:50Z</time>
      </trkpt>
      <trkpt lat="41.940345755" lon="14.101331933">
        <ele>1667.5</ele>
        <time>2024-06-14T12:20:18Z</time>
      </trkpt>
      <trkpt lat="41.940207034" lon="14.101340314">
        <ele>1663.7</ele>
        <time>2024-06-14T12:20:38Z</time>
      </trkpt>
      <trkpt lat="41.940023974" lon="14.101276025">
        <ele>1660.3</ele>
        <time>2024-06-14T12:21:07Z</time>
      </trkpt>
      <trkpt lat="41.939941663" lon="14.101324808">
        <ele>1657.0</ele>
        <time>2024-06-14T12:21:19Z</time>
      </trkpt>
      <trkpt lat="41.939792717" lon="14.101309301">
        <ele>1653.6</ele>
        <time>2024-06-14T12:21:34Z</time>
      </trkpt>
      <trkpt lat="41.939685764" lon="14.101317599">
        <ele>1650.7</ele>
        <time>2024-06-14T12:21:48Z</time>
      </trkpt>
      <trkpt lat="41.939658020" lon="14.101342242">
        <ele>1650.2</ele>
        <time>2024-06-14T12:21:53Z</time>
      </trkpt>
      <trkpt lat="41.939508989" lon="14.101298992">
        <ele>1645.4</ele>
        <time>2024-06-14T12:22:13Z</time>
      </trkpt>
      <trkpt lat="41.939470936" lon="14.101378871">
        <ele>1642.1</ele>
        <time>2024-06-14T12:22:26Z</time>
      </trkpt>
      <trkpt lat="41.939305309" lon="14.101417847">
        <ele>1636.8</ele>
        <time>2024-06-14T12:22:58Z</time>
      </trkpt>
      <trkpt lat="41.939254599" lon="14.101456068">
        <ele>1633.4</ele>
        <time>2024-06-14T12:23:10Z</time>
      </trkpt>
      <trkpt lat="41.939185448" lon="14.101460092">
        <ele>1631.0</ele>
        <time>2024-06-14T12:23:22Z</time>
      </trkpt>
      <trkpt lat="41.939099785" lon="14.101403179">
        <ele>1629.1</ele>
        <time>2024-06-14T12:23:36Z</time>
      </trkpt>
      <trkpt lat="41.939012948" lon="14.101537121">
        <ele>1625.2</ele>
        <time>2024-06-14T12:24:03Z</time>
      </trkpt>
      <trkpt lat="41.938935919" lon="14.101539468">
        <ele>1622.4</ele>
        <time>2024-06-14T12:24:17Z</time>
      </trkpt>
      <trkpt lat="41.938857045" lon="14.101584982">
        <ele>1619.5</ele>
        <time>2024-06-14T12:24:30Z</time>
      </trkpt>
      <trkpt lat="41.938807173" lon="14.101708783">
        <ele>1616.6</ele>
        <time>2024-06-14T12:24:44Z</time>
      </trkpt>
      <trkpt lat="41.938630147" lon="14.101657653">
        <ele>1612.3</ele>
        <time>2024-06-14T12:25:10Z</time>
      </trkpt>
      <trkpt lat="41.938615730" lon="14.101728397">
        <ele>1610.3</ele>
        <time>2024-06-14T12:25:21Z</time>
      </trkpt>
      <trkpt lat="41.938540209" lon="14.101729738">
        <ele>1607.9</ele>
        <time>2024-06-14T12:25:33Z</time>
      </trkpt>
      <trkpt lat="41.938491091" lon="14.101749016">
        <ele>1606.5</ele>
        <time>2024-06-14T12:25:40Z</time>
      </trkpt>
      <trkpt lat="41.938486984" lon="14.101776089">
        <ele>1606.0</ele>
        <time>2024-06-14T12:25:42Z</time>
      </trkpt>
      <trkpt lat="41.938354801" lon="14.101692270">
        <ele>1601.2</ele>
        <time>2024-06-14T12:25:59Z</time>
      </trkpt>
      <trkpt lat="41.938334350" lon="14.101713477">
        <ele>1600.7</ele>
        <time>2024-06-14T12:26:02Z</time>
      </trkpt>
      <trkpt lat="41.938333176" lon="14.101753123">
        <ele>1599.8</ele>
        <time>2024-06-14T12:26:05Z</time>
      </trkpt>
      <trkpt lat="41.938236617" lon="14.101713896">
        <ele>1596.4</ele>
        <time>2024-06-14T12:26:18Z</time>
      </trkpt>
      <trkpt lat="41.938155731" lon="14.101615492">
        <ele>1594.0</ele>
        <time>2024-06-14T12:26:32Z</time>
      </trkpt>
      <trkpt lat="41.938086580" lon="14.101619683">
        <ele>1589.2</ele>
        <time>2024-06-14T12:27:07Z</time>
      </trkpt>
      <trkpt lat="41.938014245" lon="14.101540726">
        <ele>1587.8</ele>
        <time>2024-06-14T12:27:38Z</time>
      </trkpt>
      <trkpt lat="41.937948866" lon="14.101433773">
        <ele>1585.8</ele>
        <time>2024-06-14T12:27:54Z</time>
      </trkpt>
      <trkpt lat="41.937850965" lon="14.101392366">
        <ele>1583.0</ele>
        <time>2024-06-14T12:28:12Z</time>
      </trkpt>
      <trkpt lat="41.937841326" lon="14.101355150">
        <ele>1582.5</ele>
        <time>2024-06-14T12:28:29Z</time>
      </trkpt>
      <trkpt lat="41.937665977" lon="14.101300752">
        <ele>1579.6</ele>
        <time>2024-06-14T12:30:14Z</time>
      </trkpt>
      <trkpt lat="41.937582577" lon="14.101207545">
        <ele>1578.1</ele>
        <time>2024-06-14T12:30:24Z</time>
      </trkpt>
      <trkpt lat="41.937498338" lon="14.101028172">
        <ele>1574.8</ele>
        <time>2024-06-14T12:30:43Z</time>
      </trkpt>
      <trkpt lat="41.937476378" lon="14.100889452">
        <ele>1572.8</ele>
        <time>2024-06-14T12:30:53Z</time>
      </trkpt>
      <trkpt lat="41.937263897" lon="14.100499861">
        <ele>1567.6</ele>
        <time>2024-06-14T12:31:30Z</time>
      </trkpt>
      <trkpt lat="41.937254677" lon="14.100341946">
        <ele>1565.6</ele>
        <time>2024-06-14T12:31:45Z</time>
      </trkpt>
      <trkpt lat="41.937055439" lon="14.100291822">
        <ele>1561.8</ele>
        <time>2024-06-14T12:32:03Z</time>
      </trkpt>
      <trkpt lat="41.936831390" lon="14.100283440">
        <ele>1558.0</ele>
        <time>2024-06-14T12:32:24Z</time>
      </trkpt>
      <trkpt lat="41.936744470" lon="14.100305317">
        <ele>1556.5</ele>
        <time>2024-06-14T12:32:32Z</time>
      </trkpt>
      <trkpt lat="41.936615892" lon="14.100420065">
        <ele>1554.6</ele>
        <time>2024-06-14T12:32:45Z</time>
      </trkpt>
      <trkpt lat="41.936536850" lon="14.100444624">
        <ele>1553.2</ele>
        <time>2024-06-14T12:32:52Z</time>
      </trkpt>
      <trkpt lat="41.936423276" lon="14.100533472">
        <ele>1550.3</ele>
        <time>2024-06-14T12:33:04Z</time>
      </trkpt>
      <trkpt lat="41.936266115" lon="14.100588206">
        <ele>1546.9</ele>
        <time>2024-06-14T12:33:18Z</time>
      </trkpt>
      <trkpt lat="41.936098728" lon="14.100771099">
        <ele>1544.0</ele>
        <time>2024-06-14T12:33:36Z</time>
      </trkpt>
      <trkpt lat="41.935889432" lon="14.100915939">
        <ele>1540.2</ele>
        <time>2024-06-14T12:33:57Z</time>
      </trkpt>
      <trkpt lat="41.935838638" lon="14.100989280">
        <ele>1538.2</ele>
        <time>2024-06-14T12:34:04Z</time>
      </trkpt>
      <trkpt lat="41.935452651" lon="14.101222297">
        <ele>1530.6</ele>
        <time>2024-06-14T12:34:45Z</time>
      </trkpt>
      <trkpt lat="41.935377214" lon="14.101241157">
        <ele>1529.6</ele>
        <time>2024-06-14T12:34:52Z</time>
      </trkpt>
      <trkpt lat="41.935057277" lon="14.101451794">
        <ele>1526.7</ele>
        <time>2024-06-14T12:35:18Z</time>
      </trkpt>
      <trkpt lat="41.934884442" lon="14.101511389">
        <ele>1525.3</ele>
        <time>2024-06-14T12:35:35Z</time>
      </trkpt>
      <trkpt lat="41.934814956" lon="14.101508371">
        <ele>1524.3</ele>
        <time>2024-06-14T12:35:42Z</time>
      </trkpt>
      <trkpt lat="41.934433328" lon="14.101614989">
        <ele>1518.1</ele>
        <time>2024-06-14T12:36:14Z</time>
      </trkpt>
      <trkpt lat="41.934261247" lon="14.101632927">
        <ele>1516.6</ele>
        <time>2024-06-14T12:36:29Z</time>
      </trkpt>
      <trkpt lat="41.934102494" lon="14.101707358">
        <ele>1514.2</ele>
        <time>2024-06-14T12:36:46Z</time>
      </trkpt>
      <trkpt lat="41.934032505" lon="14.101706436">
        <ele>1513.2</ele>
        <time>2024-06-14T12:36:53Z</time>
      </trkpt>
      <trkpt lat="41.933768224" lon="14.101847922">
        <ele>1509.4</ele>
        <time>2024-06-14T12:37:17Z</time>
      </trkpt>
      <trkpt lat="41.933616344" lon="14.101990918">
        <ele>1507.0</ele>
        <time>2024-06-14T12:37:35Z</time>
      </trkpt>
      <trkpt lat="41.933555407" lon="14.102149000">
        <ele>1506.5</ele>
        <time>2024-06-14T12:37:52Z</time>
      </trkpt>
      <trkpt lat="41.933443509" lon="14.102303982">
        <ele>1504.6</ele>
        <time>2024-06-14T12:38:06Z</time>
      </trkpt>
      <trkpt lat="41.933335802" lon="14.102360643">
        <ele>1503.6</ele>
        <time>2024-06-14T12:38:18Z</time>
      </trkpt>
      <trkpt lat="41.933247289" lon="14.102365756">
        <ele>1503.2</ele>
        <time>2024-06-14T12:38:27Z</time>
      </trkpt>
      <trkpt lat="41.932974625" lon="14.102559378">
        <ele>1500.3</ele>
        <time>2024-06-14T12:38:58Z</time>
      </trkpt>
      <trkpt lat="41.932829115" lon="14.102584440">
        <ele>1499.8</ele>
        <time>2024-06-14T12:39:14Z</time>
      </trkpt>
      <trkpt lat="41.932703387" lon="14.102567341">
        <ele>1499.3</ele>
        <time>2024-06-14T12:39:27Z</time>
      </trkpt>
      <trkpt lat="41.932507334" lon="14.102636659">
        <ele>1496.4</ele>
        <time>2024-06-14T12:39:48Z</time>
      </trkpt>
      <trkpt lat="41.932191336" lon="14.102696339">
        <ele>1492.1</ele>
        <time>2024-06-14T12:40:19Z</time>
      </trkpt>
      <trkpt lat="41.931889588" lon="14.102729280">
        <ele>1489.7</ele>
        <time>2024-06-14T12:40:45Z</time>
      </trkpt>
      <trkpt lat="41.931767715" lon="14.102769764">
        <ele>1487.3</ele>
        <time>2024-06-14T12:40:59Z</time>
      </trkpt>
      <trkpt lat="41.931461692" lon="14.102777224">
        <ele>1481.5</ele>
        <time>2024-06-14T12:41:30Z</time>
      </trkpt>
      <trkpt lat="41.931305118" lon="14.102809411">
        <ele>1477.2</ele>
        <time>2024-06-14T12:41:48Z</time>
      </trkpt>
      <trkpt lat="41.931210486" lon="14.102784768">
        <ele>1475.8</ele>
        <time>2024-06-14T12:41:57Z</time>
      </trkpt>
      <trkpt lat="41.931078974" lon="14.102831706">
        <ele>1472.9</ele>
        <time>2024-06-14T12:42:09Z</time>
      </trkpt>
      <trkpt lat="41.931059863" lon="14.102820894">
        <ele>1472.4</ele>
        <time>2024-06-14T12:42:11Z</time>
      </trkpt>
      <trkpt lat="41.931002783" lon="14.102863809">
        <ele>1471.4</ele>
        <time>2024-06-14T12:42:17Z</time>
      </trkpt>
      <trkpt lat="41.930850819" lon="14.102850650">
        <ele>1468.1</ele>
        <time>2024-06-14T12:42:30Z</time>
      </trkpt>
      <trkpt lat="41.930700112" lon="14.102888284">
        <ele>1464.2</ele>
        <time>2024-06-14T12:42:45Z</time>
      </trkpt>
      <trkpt lat="41.930481680" lon="14.102976462">
        <ele>1458.0</ele>
        <time>2024-06-14T12:43:11Z</time>
      </trkpt>
      <trkpt lat="41.930342373" lon="14.103009151">
        <ele>1454.6</ele>
        <time>2024-06-14T12:43:26Z</time>
      </trkpt>
      <trkpt lat="41.930174818" lon="14.103124905">
        <ele>1449.8</ele>
        <time>2024-06-14T12:43:48Z</time>
      </trkpt>
      <trkpt lat="41.930149505" lon="14.103198834">
        <ele>1448.8</ele>
        <time>2024-06-14T12:43:53Z</time>
      </trkpt>
      <trkpt lat="41.929997373" lon="14.103282569">
        <ele>1446.0</ele>
        <time>2024-06-14T12:44:08Z</time>
      </trkpt>
      <trkpt lat="41.929847840" lon="14.103405364">
        <ele>1442.1</ele>
        <time>2024-06-14T12:44:22Z</time>
      </trkpt>
      <trkpt lat="41.929673999" lon="14.103445597">
        <ele>1438.3</ele>
        <time>2024-06-14T12:44:39Z</time>
      </trkpt>
      <trkpt lat="41.929610213" lon="14.103401089">
        <ele>1436.8</ele>
        <time>2024-06-14T12:44:45Z</time>
      </trkpt>
      <trkpt lat="41.929465206" lon="14.103496810">
        <ele>1431.5</ele>
        <time>2024-06-14T12:45:00Z</time>
      </trkpt>
      <trkpt lat="41.929294718" lon="14.103551293">
        <ele>1428.2</ele>
        <time>2024-06-14T12:45:13Z</time>
      </trkpt>
      <trkpt lat="41.929254234" lon="14.103608290">
        <ele>1426.2</ele>
        <time>2024-06-14T12:45:19Z</time>
      </trkpt>
      <trkpt lat="41.929203859" lon="14.103741227">
        <ele>1423.8</ele>
        <time>2024-06-14T12:45:32Z</time>
      </trkpt>
      <trkpt lat="41.929146191" lon="14.103822280">
        <ele>1421.0</ele>
        <time>2024-06-14T12:45:44Z</time>
      </trkpt>
      <trkpt lat="41.928989785" lon="14.103812976">
        <ele>1414.7</ele>
        <time>2024-06-14T12:46:08Z</time>
      </trkpt>
      <trkpt lat="41.928911833" lon="14.103824375">
        <ele>1411.8</ele>
        <time>2024-06-14T12:46:20Z</time>
      </trkpt>
      <trkpt lat="41.928859446" lon="14.103858322">
        <ele>1409.9</ele>
        <time>2024-06-14T12:46:27Z</time>
      </trkpt>
      <trkpt lat="41.928739166" lon="14.103852790">
        <ele>1406.5</ele>
        <time>2024-06-14T12:46:37Z</time>
      </trkpt>
      <trkpt lat="41.928557949" lon="14.103757907">
        <ele>1399.8</ele>
        <time>2024-06-14T12:46:53Z</time>
      </trkpt>
      <trkpt lat="41.928383103" lon="14.103729995">
        <ele>1396.9</ele>
        <time>2024-06-14T12:47:07Z</time>
      </trkpt>
      <trkpt lat="41.928022513" lon="14.103763606">
        <ele>1396.9</ele>
        <time>2024-06-14T12:47:41Z</time>
      </trkpt>
      <trkpt lat="41.927908519" lon="14.103747010">
        <ele>1395.0</ele>
        <time>2024-06-14T12:47:52Z</time>
      </trkpt>
      <trkpt lat="41.927781031" lon="14.103578534">
        <ele>1390.7</ele>
        <time>2024-06-14T12:48:08Z</time>
      </trkpt>
      <trkpt lat="41.927833417" lon="14.103475185">
        <ele>1387.3</ele>
        <time>2024-06-14T12:48:22Z</time>
      </trkpt>
      <trkpt lat="41.927813888" lon="14.103437802">
        <ele>1386.4</ele>
        <time>2024-06-14T12:48:26Z</time>
      </trkpt>
      <trkpt lat="41.927657062" lon="14.103257088">
        <ele>1379.6</ele>
        <time>2024-06-14T12:48:49Z</time>
      </trkpt>
      <trkpt lat="41.927574333" lon="14.103216184">
        <ele>1375.8</ele>
        <time>2024-06-14T12:49:01Z</time>
      </trkpt>
      <trkpt lat="41.927526388" lon="14.103170922">
        <ele>1373.9</ele>
        <time>2024-06-14T12:49:10Z</time>
      </trkpt>
      <trkpt lat="41.927552205" lon="14.103107890">
        <ele>1370.5</ele>
        <time>2024-06-14T12:49:23Z</time>
      </trkpt>
      <trkpt lat="41.927527478" lon="14.103078470">
        <ele>1368.1</ele>
        <time>2024-06-14T12:49:31Z</time>
      </trkpt>
      <trkpt lat="41.927399319" lon="14.103051396">
        <ele>1363.8</ele>
        <time>2024-06-14T12:49:43Z</time>
      </trkpt>
      <trkpt lat="41.927295718" lon="14.102998506">
        <ele>1360.4</ele>
        <time>2024-06-14T12:49:55Z</time>
      </trkpt>
      <trkpt lat="41.927093715" lon="14.102836568">
        <ele>1351.3</ele>
        <time>2024-06-14T12:50:27Z</time>
      </trkpt>
      <trkpt lat="41.927056415" lon="14.102780325">
        <ele>1347.9</ele>
        <time>2024-06-14T12:50:38Z</time>
      </trkpt>
      <trkpt lat="41.926709739" lon="14.102692232">
        <ele>1338.8</ele>
        <time>2024-06-14T12:51:10Z</time>
      </trkpt>
      <trkpt lat="41.926610582" lon="14.102619141">
        <ele>1336.4</ele>
        <time>2024-06-14T12:51:23Z</time>
      </trkpt>
      <trkpt lat="41.926432885" lon="14.102569772">
        <ele>1330.1</ele>
        <time>2024-06-14T12:51:47Z</time>
      </trkpt>
      <trkpt lat="41.926401788" lon="14.102586200">
        <ele>1327.7</ele>
        <time>2024-06-14T12:52:11Z</time>
      </trkpt>
      <trkpt lat="41.926176148" lon="14.102503052">
        <ele>1322.4</ele>
        <time>2024-06-14T12:52:46Z</time>
      </trkpt>
      <trkpt lat="41.926070536" lon="14.102418227">
        <ele>1319.1</ele>
        <time>2024-06-14T12:52:58Z</time>
      </trkpt>
      <trkpt lat="41.925872890" lon="14.102309849">
        <ele>1312.8</ele>
        <time>2024-06-14T12:53:18Z</time>
      </trkpt>
      <trkpt lat="41.925802398" lon="14.102248075">
        <ele>1309.5</ele>
        <time>2024-06-14T12:53:25Z</time>
      </trkpt>
      <trkpt lat="41.925577261" lon="14.102164088">
        <ele>1302.2</ele>
        <time>2024-06-14T12:53:43Z</time>
      </trkpt>
      <trkpt lat="41.925462261" lon="14.102070294">
        <ele>1297.9</ele>
        <time>2024-06-14T12:53:57Z</time>
      </trkpt>
      <trkpt lat="41.925264867" lon="14.101973735">
        <ele>1294.1</ele>
        <time>2024-06-14T12:54:13Z</time>
      </trkpt>
      <trkpt lat="41.924786009" lon="14.101835769">
        <ele>1283.0</ele>
        <time>2024-06-14T12:54:53Z</time>
      </trkpt>
      <trkpt lat="41.924480237" lon="14.101932580">
        <ele>1280.1</ele>
        <time>2024-06-14T12:55:16Z</time>
      </trkpt>
      <trkpt lat="41.923777498" lon="14.102203483">
        <ele>1275.3</ele>
        <time>2024-06-14T12:56:13Z</time>
      </trkpt>
      <trkpt lat="41.923600053" lon="14.102230640">
        <ele>1275.3</ele>
        <time>2024-06-14T12:56:28Z</time>
      </trkpt>
      <trkpt lat="41.923071239" lon="14.102225946">
        <ele>1276.8</ele>
        <time>2024-06-14T12:57:12Z</time>
      </trkpt>
      <trkpt lat="41.922792625" lon="14.102309095">
        <ele>1278.2</ele>
        <time>2024-06-14T12:57:37Z</time>
      </trkpt>
      <trkpt lat="41.922615347" lon="14.102407917">
        <ele>1280.1</ele>
        <time>2024-06-14T12:57:55Z</time>
      </trkpt>
      <trkpt lat="41.921887211" lon="14.102905216">
        <ele>1286.4</ele>
        <time>2024-06-14T12:59:10Z</time>
      </trkpt>
      <trkpt lat="41.921750084" lon="14.103057850">
        <ele>1286.4</ele>
        <time>2024-06-14T12:59:25Z</time>
      </trkpt>
      <trkpt lat="41.921611531" lon="14.103281479">
        <ele>1286.4</ele>
        <time>2024-06-14T12:59:43Z</time>
      </trkpt>
      <trkpt lat="41.921453364" lon="14.103412908">
        <ele>1285.4</ele>
        <time>2024-06-14T13:00:00Z</time>
      </trkpt>
      <trkpt lat="41.920724139" lon="14.103867207">
        <ele>1282.5</ele>
        <time>2024-06-14T13:01:05Z</time>
      </trkpt>
      <trkpt lat="41.920542000" lon="14.104034761">
        <ele>1282.1</ele>
        <time>2024-06-14T13:01:22Z</time>
      </trkpt>
      <trkpt lat="41.919438858" lon="14.105201103">
        <ele>1278.2</ele>
        <time>2024-06-14T13:03:16Z</time>
      </trkpt>
      <trkpt lat="41.919107856" lon="14.105464630">
        <ele>1278.2</ele>
        <time>2024-06-14T13:03:50Z</time>
      </trkpt>
      <trkpt lat="41.918764282" lon="14.105383577">
        <ele>1277.7</ele>
        <time>2024-06-14T13:04:32Z</time>
      </trkpt>
      <trkpt lat="41.918759001" lon="14.105302356">
        <ele>1284.0</ele>
        <time>2024-06-14T13:05:16Z</time>
      </trkpt>
    </trkseg>
  </trk>
</gpx>
